CKS122 GOOY-KPAM
Flight info
| Callsign | CKS122 |
|---|---|
| Flight time | N/A |
| Altitude | 28000 |
| Route | NARAT UR976 GAMBA/M082F280 UR976 ULTEM DCT 23N034W 25N039W 27N044W/M082F300 29N050W 30N055W DCT WINGZ/M082F310 DCT WINGZ/M082F300 M327 LITTL M326 JIMAC/M082F320 M326 JAINS/N0479F320 AR12 HARON Y494 WEAKK Y493 BAHAA AR5 KOOKK DCT HEVVN |
| Aircraft | B77L/H-SDE1E2E3FGHIJ2J3J4J5M1RWXY/LB1D1 |
Departure
| Time | 2026-04-21 09:17 |
|---|---|
| Airport | Léopold Sédar Senghor International Airport (GOOY) |
Arrival
| Time | N/A |
|---|---|
| Airport | Tyndall Air Force Base (KPAM) |
| Time | Latitude | Longitude | Altitude | Speed | Heading |
|---|---|---|---|---|---|
| 2026-04-21 08:58 | 14.74442 | -17.48947 | 83 ft | 0 kts | 17° |
| 2026-04-21 09:02 | 14.74441 | -17.48947 | 79 ft | 0 kts | 17° |
| 2026-04-21 09:08 | 14.74440 | -17.48948 | 79 ft | 2 kts | 17° |
| 2026-04-21 09:08 | 14.74429 | -17.48951 | 85 ft | 2 kts | 17° |
| 2026-04-21 09:08 | 14.74415 | -17.48957 | 82 ft | 2 kts | 32° |
| 2026-04-21 09:09 | 14.74402 | -17.48967 | 84 ft | 2 kts | 49° |
| 2026-04-21 09:09 | 14.74392 | -17.48981 | 84 ft | 2 kts | 67° |
| 2026-04-21 09:09 | 14.74389 | -17.48998 | 67 ft | 2 kts | 106° |
| 2026-04-21 09:10 | 14.74385 | -17.48987 | 67 ft | 6 kts | 107° |
| 2026-04-21 09:10 | 14.74372 | -17.48945 | 82 ft | 6 kts | 107° |
| 2026-04-21 09:11 | 14.74354 | -17.48881 | 84 ft | 17 kts | 106° |
| 2026-04-21 09:11 | 14.74318 | -17.48754 | 86 ft | 19 kts | 106° |
| 2026-04-21 09:11 | 14.74282 | -17.48626 | 85 ft | 19 kts | 107° |
| 2026-04-21 09:11 | 14.74276 | -17.48494 | 87 ft | 19 kts | 78° |
| 2026-04-21 09:12 | 14.74287 | -17.48434 | 86 ft | 0 kts | 79° |
| 2026-04-21 09:12 | 14.74299 | -17.48368 | 87 ft | 21 kts | 79° |
| 2026-04-21 09:12 | 14.74326 | -17.48225 | 89 ft | 17 kts | 78° |
| 2026-04-21 09:12 | 14.74319 | -17.48108 | 89 ft | 17 kts | 114° |
| 2026-04-21 09:13 | 14.74272 | -17.47997 | 88 ft | 17 kts | 112° |
| 2026-04-21 09:13 | 14.74201 | -17.47910 | 90 ft | 17 kts | 163° |
| 2026-04-21 09:13 | 14.74056 | -17.47889 | 88 ft | 26 kts | 172° |
| 2026-04-21 09:13 | 14.73863 | -17.47863 | 92 ft | 28 kts | 172° |
| 2026-04-21 09:14 | 14.73669 | -17.47836 | 90 ft | 28 kts | 172° |
| 2026-04-21 09:14 | 14.73478 | -17.47811 | 93 ft | 28 kts | 173° |
| 2026-04-21 09:14 | 14.73245 | -17.47780 | 96 ft | 37 kts | 173° |
| 2026-04-21 09:14 | 14.73004 | -17.47747 | 98 ft | 33 kts | 172° |
| 2026-04-21 09:15 | 14.72797 | -17.47720 | 98 ft | 29 kts | 173° |
| 2026-04-21 09:15 | 14.72681 | -17.47670 | 100 ft | 9 kts | 159° |
| 2026-04-21 09:15 | 14.72660 | -17.47699 | 98 ft | 4 kts | 296° |
| 2026-04-21 09:15 | 14.72690 | -17.47705 | 96 ft | 4 kts | 352° |
| 2026-04-21 09:16 | 14.72749 | -17.47713 | 99 ft | 27 kts | 352° |
| 2026-04-21 09:16 | 14.73208 | -17.47775 | 96 ft | 105 kts | 353° |
| 2026-04-21 09:16 | 14.74176 | -17.47908 | 101 ft | 174 kts | 352° |
| 2026-04-21 09:16 | 14.75516 | -17.48070 | 327 ft | 199 kts | 352° |
| 2026-04-21 09:17 | 14.76792 | -17.48412 | 1180 ft | 190 kts | 329° |
| 2026-04-21 09:17 | 14.77728 | -17.49445 | 1420 ft | 211 kts | 297° |
| 2026-04-21 09:17 | 14.78255 | -17.50922 | 1634 ft | 227 kts | 292° |
| 2026-04-21 09:17 | 14.78782 | -17.52506 | 1987 ft | 241 kts | 292° |
| 2026-04-21 09:18 | 14.79346 | -17.54211 | 2239 ft | 259 kts | 292° |
| 2026-04-21 09:18 | 14.79921 | -17.55968 | 2896 ft | 259 kts | 290° |
| 2026-04-21 09:18 | 14.80505 | -17.57756 | 3432 ft | 265 kts | 289° |
| 2026-04-21 09:18 | 14.81098 | -17.59582 | 3980 ft | 270 kts | 289° |
| 2026-04-21 09:19 | 14.81700 | -17.61431 | 4552 ft | 274 kts | 288° |
| 2026-04-21 09:19 | 14.82311 | -17.63304 | 5153 ft | 276 kts | 288° |
| 2026-04-21 09:19 | 14.82928 | -17.65193 | 5738 ft | 279 kts | 288° |
| 2026-04-21 09:19 | 14.83546 | -17.67085 | 6271 ft | 284 kts | 287° |
| 2026-04-21 09:20 | 14.84181 | -17.69028 | 6813 ft | 287 kts | 287° |
| 2026-04-21 09:20 | 14.84825 | -17.70998 | 7316 ft | 292 kts | 287° |
| 2026-04-21 09:20 | 14.85482 | -17.73006 | 7846 ft | 296 kts | 287° |
| 2026-04-21 09:20 | 14.86144 | -17.75027 | 8428 ft | 298 kts | 287° |
| 2026-04-21 09:21 | 14.86811 | -17.77064 | 9001 ft | 300 kts | 287° |
| 2026-04-21 09:21 | 14.87481 | -17.79115 | 9561 ft | 303 kts | 286° |
| 2026-04-21 09:21 | 14.88161 | -17.81193 | 10084 ft | 306 kts | 287° |
| 2026-04-21 09:21 | 14.88854 | -17.83315 | 10344 ft | 320 kts | 286° |
| 2026-04-21 09:22 | 14.89585 | -17.85556 | 10493 ft | 337 kts | 286° |
| 2026-04-21 09:22 | 14.90355 | -17.87916 | 10647 ft | 355 kts | 286° |
| 2026-04-21 09:22 | 14.91161 | -17.90390 | 10833 ft | 371 kts | 287° |
| 2026-04-21 09:22 | 14.91994 | -17.92938 | 11342 ft | 375 kts | 286° |
| 2026-04-21 09:23 | 14.92834 | -17.95505 | 11900 ft | 380 kts | 286° |
| 2026-04-21 09:23 | 14.93670 | -17.98066 | 12507 ft | 381 kts | 287° |
| 2026-04-21 09:23 | 14.94524 | -18.00674 | 13127 ft | 384 kts | 287° |
| 2026-04-21 09:23 | 14.95448 | -18.03272 | 13709 ft | 386 kts | 289° |
| 2026-04-21 09:24 | 14.96422 | -18.05865 | 14298 ft | 387 kts | 289° |
| 2026-04-21 09:24 | 14.97412 | -18.08462 | 14833 ft | 389 kts | 289° |
| 2026-04-21 09:24 | 14.98410 | -18.11079 | 15369 ft | 391 kts | 289° |
| 2026-04-21 09:24 | 14.99407 | -18.13707 | 15903 ft | 393 kts | 289° |
| 2026-04-21 09:25 | 15.00403 | -18.16348 | 16434 ft | 395 kts | 289° |
| 2026-04-21 09:25 | 15.01399 | -18.19003 | 16967 ft | 397 kts | 289° |
| 2026-04-21 09:25 | 15.02400 | -18.21678 | 17501 ft | 399 kts | 289° |
| 2026-04-21 09:25 | 15.03401 | -18.24359 | 18020 ft | 401 kts | 289° |
| 2026-04-21 09:26 | 15.04405 | -18.27050 | 18499 ft | 402 kts | 289° |
| 2026-04-21 09:26 | 15.05413 | -18.29755 | 18960 ft | 404 kts | 289° |
| 2026-04-21 09:26 | 15.06424 | -18.32469 | 19395 ft | 405 kts | 290° |
| 2026-04-21 09:26 | 15.07436 | -18.35189 | 19846 ft | 406 kts | 290° |
| 2026-04-21 09:27 | 15.08441 | -18.37888 | 20261 ft | 408 kts | 290° |
| 2026-04-21 09:27 | 15.09463 | -18.40635 | 20677 ft | 409 kts | 290° |
| 2026-04-21 09:27 | 15.10486 | -18.43387 | 21082 ft | 411 kts | 290° |
| 2026-04-21 09:27 | 15.11516 | -18.46158 | 21488 ft | 412 kts | 290° |
| 2026-04-21 09:28 | 15.12547 | -18.48934 | 21890 ft | 414 kts | 291° |
| 2026-04-21 09:28 | 15.13582 | -18.51720 | 22271 ft | 416 kts | 291° |
| 2026-04-21 09:28 | 15.14621 | -18.54518 | 22639 ft | 417 kts | 291° |
| 2026-04-21 09:28 | 15.15664 | -18.57331 | 22998 ft | 419 kts | 291° |
| 2026-04-21 09:29 | 15.16710 | -18.60149 | 23355 ft | 421 kts | 291° |
| 2026-04-21 09:29 | 15.17760 | -18.62982 | 23675 ft | 422 kts | 291° |
| 2026-04-21 09:29 | 15.18814 | -18.65827 | 23968 ft | 423 kts | 291° |
| 2026-04-21 09:29 | 15.19870 | -18.68677 | 24253 ft | 424 kts | 291° |
| 2026-04-21 09:30 | 15.20927 | -18.71533 | 24550 ft | 425 kts | 291° |
| 2026-04-21 09:30 | 15.21987 | -18.74397 | 24829 ft | 426 kts | 291° |
| 2026-04-21 09:30 | 15.22690 | -18.76297 | 25011 ft | 427 kts | 291° |
| 2026-04-21 09:30 | 15.23755 | -18.79178 | 25288 ft | 428 kts | 291° |
| 2026-04-21 09:31 | 15.24821 | -18.82063 | 25558 ft | 430 kts | 291° |
| 2026-04-21 09:31 | 15.25891 | -18.84959 | 25843 ft | 431 kts | 291° |
| 2026-04-21 09:31 | 15.27311 | -18.88802 | 26183 ft | 432 kts | 291° |
| 2026-04-21 09:31 | 15.28388 | -18.91722 | 26441 ft | 434 kts | 291° |
| 2026-04-21 09:32 | 15.29115 | -18.93690 | 26622 ft | 434 kts | 291° |
| 2026-04-21 09:32 | 15.30180 | -18.96581 | 26877 ft | 435 kts | 291° |
| 2026-04-21 09:32 | 15.31267 | -18.99528 | 27131 ft | 437 kts | 291° |
| 2026-04-21 09:32 | 15.32352 | -19.02472 | 27381 ft | 438 kts | 291° |
| 2026-04-21 09:33 | 15.33438 | -19.05422 | 27636 ft | 439 kts | 291° |
| 2026-04-21 09:33 | 15.34528 | -19.08383 | 27873 ft | 441 kts | 291° |
| 2026-04-21 09:33 | 15.35624 | -19.11362 | 27913 ft | 444 kts | 291° |
| 2026-04-21 09:33 | 15.36726 | -19.14357 | 27966 ft | 444 kts | 291° |
| 2026-04-21 09:34 | 15.38930 | -19.20355 | 28052 ft | 453 kts | 291° |
| 2026-04-21 09:34 | 15.41191 | -19.26512 | 28219 ft | 459 kts | 291° |
| 2026-04-21 09:35 | 15.42326 | -19.29607 | 28392 ft | 459 kts | 291° |
| 2026-04-21 09:35 | 15.43461 | -19.32702 | 28649 ft | 458 kts | 291° |
| 2026-04-21 09:35 | 15.44589 | -19.35781 | 28930 ft | 456 kts | 291° |
| 2026-04-21 09:35 | 15.45713 | -19.38848 | 29213 ft | 455 kts | 291° |
| 2026-04-21 09:36 | 15.46836 | -19.41916 | 29478 ft | 454 kts | 291° |
| 2026-04-21 09:36 | 15.47955 | -19.44972 | 29748 ft | 453 kts | 291° |
| 2026-04-21 09:36 | 15.49057 | -19.47985 | 29908 ft | 452 kts | 291° |
| 2026-04-21 09:36 | 15.50174 | -19.51039 | 29940 ft | 453 kts | 291° |
| 2026-04-21 09:37 | 15.52407 | -19.57152 | 29978 ft | 453 kts | 291° |
| 2026-04-21 09:37 | 15.54635 | -19.63256 | 29991 ft | 451 kts | 291° |
| 2026-04-21 09:38 | 15.56855 | -19.69342 | 29987 ft | 451 kts | 291° |
| 2026-04-21 09:38 | 15.59069 | -19.75419 | 29991 ft | 450 kts | 291° |
| 2026-04-21 09:39 | 15.61282 | -19.81500 | 29988 ft | 450 kts | 291° |
| 2026-04-21 09:39 | 15.63479 | -19.87543 | 29992 ft | 450 kts | 291° |
| 2026-04-21 09:40 | 15.65688 | -19.93627 | 29993 ft | 451 kts | 291° |
| 2026-04-21 09:40 | 15.67900 | -19.99720 | 29995 ft | 451 kts | 291° |
| 2026-04-21 09:41 | 15.70130 | -20.05809 | 29995 ft | 451 kts | 291° |
| 2026-04-21 09:41 | 15.72377 | -20.11898 | 29994 ft | 452 kts | 291° |
| 2026-04-21 09:42 | 15.74623 | -20.17997 | 29994 ft | 452 kts | 291° |
| 2026-04-21 09:42 | 15.76864 | -20.24097 | 29994 ft | 452 kts | 291° |
| 2026-04-21 09:43 | 15.79106 | -20.30208 | 29995 ft | 452 kts | 291° |
| 2026-04-21 09:43 | 15.81343 | -20.36313 | 29996 ft | 452 kts | 291° |
| 2026-04-21 09:44 | 15.83579 | -20.42422 | 29995 ft | 452 kts | 291° |
| 2026-04-21 09:44 | 15.85798 | -20.48487 | 29999 ft | 452 kts | 291° |
| 2026-04-21 09:45 | 15.88029 | -20.54593 | 29999 ft | 452 kts | 291° |
| 2026-04-21 09:45 | 15.90259 | -20.60704 | 29997 ft | 452 kts | 291° |
| 2026-04-21 09:46 | 15.92487 | -20.66813 | 29998 ft | 452 kts | 291° |
| 2026-04-21 09:46 | 15.94713 | -20.72925 | 29998 ft | 452 kts | 291° |
| 2026-04-21 09:47 | 15.96925 | -20.79002 | 30000 ft | 452 kts | 291° |
| 2026-04-21 09:47 | 15.99144 | -20.85107 | 30000 ft | 452 kts | 291° |
| 2026-04-21 09:48 | 16.01364 | -20.91218 | 30000 ft | 452 kts | 291° |
| 2026-04-21 09:48 | 16.03584 | -20.97336 | 29999 ft | 452 kts | 291° |
| 2026-04-21 09:49 | 16.05804 | -21.03463 | 30005 ft | 452 kts | 290° |
| 2026-04-21 09:49 | 16.08023 | -21.09589 | 30003 ft | 452 kts | 290° |
| 2026-04-21 09:50 | 16.10222 | -21.15669 | 30009 ft | 452 kts | 290° |
| 2026-04-21 09:50 | 16.12434 | -21.21790 | 30005 ft | 452 kts | 290° |
| 2026-04-21 09:51 | 16.14648 | -21.27923 | 30005 ft | 452 kts | 290° |
| 2026-04-21 09:51 | 16.16858 | -21.34051 | 30002 ft | 452 kts | 290° |
| 2026-04-21 09:52 | 16.19066 | -21.40181 | 30002 ft | 452 kts | 290° |
| 2026-04-21 09:52 | 16.21275 | -21.46317 | 30006 ft | 453 kts | 290° |
| 2026-04-21 09:53 | 16.23468 | -21.52417 | 30009 ft | 453 kts | 290° |
| 2026-04-21 09:53 | 16.25671 | -21.58554 | 30009 ft | 453 kts | 290° |
| 2026-04-21 09:54 | 16.27874 | -21.64691 | 30013 ft | 453 kts | 290° |
| 2026-04-21 09:54 | 16.30068 | -21.70832 | 30013 ft | 452 kts | 290° |
| 2026-04-21 09:55 | 16.32251 | -21.76988 | 30013 ft | 453 kts | 290° |
| 2026-04-21 09:55 | 16.34431 | -21.83146 | 30015 ft | 452 kts | 290° |
| 2026-04-21 09:56 | 16.36594 | -21.89261 | 30014 ft | 452 kts | 290° |
| 2026-04-21 09:56 | 16.38770 | -21.95415 | 30012 ft | 452 kts | 290° |
| 2026-04-21 09:57 | 16.40944 | -22.01569 | 30012 ft | 452 kts | 290° |
| 2026-04-21 09:57 | 16.43115 | -22.07721 | 30013 ft | 452 kts | 290° |
| 2026-04-21 09:58 | 16.45284 | -22.13874 | 30011 ft | 452 kts | 290° |
| 2026-04-21 09:58 | 16.47450 | -22.20025 | 30004 ft | 452 kts | 290° |
| 2026-04-21 09:59 | 16.49618 | -22.26189 | 30004 ft | 452 kts | 290° |
| 2026-04-21 09:59 | 16.51781 | -22.32344 | 30001 ft | 452 kts | 290° |
| 2026-04-21 10:00 | 16.53928 | -22.38460 | 29996 ft | 452 kts | 290° |
| 2026-04-21 10:00 | 16.56090 | -22.44626 | 29997 ft | 452 kts | 290° |
| 2026-04-21 10:01 | 16.58248 | -22.50788 | 29994 ft | 452 kts | 290° |
| 2026-04-21 10:01 | 16.60405 | -22.56951 | 29988 ft | 452 kts | 290° |
| 2026-04-21 10:02 | 16.63632 | -22.66188 | 29990 ft | 452 kts | 290° |
| 2026-04-21 10:03 | 16.65783 | -22.72350 | 29991 ft | 452 kts | 290° |
| 2026-04-21 10:03 | 16.67935 | -22.78524 | 29987 ft | 452 kts | 290° |
| 2026-04-21 10:04 | 16.70068 | -22.84652 | 29993 ft | 452 kts | 290° |
| 2026-04-21 10:04 | 16.72234 | -22.90820 | 29998 ft | 452 kts | 292° |
| 2026-04-21 10:05 | 16.75095 | -22.96654 | 30002 ft | 452 kts | 300° |
| 2026-04-21 10:05 | 16.78697 | -23.02045 | 30000 ft | 453 kts | 305° |
| 2026-04-21 10:06 | 16.82551 | -23.07257 | 29998 ft | 453 kts | 306° |
| 2026-04-21 10:06 | 16.86384 | -23.12445 | 29999 ft | 453 kts | 306° |
| 2026-04-21 10:07 | 16.90217 | -23.17673 | 30003 ft | 453 kts | 305° |
| 2026-04-21 10:07 | 16.94042 | -23.22909 | 30016 ft | 453 kts | 305° |
| 2026-04-21 10:08 | 16.97860 | -23.28144 | 30021 ft | 453 kts | 305° |
| 2026-04-21 10:08 | 17.01670 | -23.33371 | 30028 ft | 452 kts | 305° |
| 2026-04-21 10:09 | 17.05480 | -23.38603 | 30031 ft | 452 kts | 305° |
| 2026-04-21 10:09 | 17.09284 | -23.43829 | 30029 ft | 451 kts | 305° |
| 2026-04-21 10:10 | 17.13061 | -23.49021 | 30034 ft | 451 kts | 305° |
| 2026-04-21 10:10 | 17.16859 | -23.54246 | 30031 ft | 451 kts | 305° |
| 2026-04-21 10:11 | 17.20656 | -23.59475 | 30035 ft | 451 kts | 305° |
| 2026-04-21 10:11 | 17.24450 | -23.64702 | 30032 ft | 450 kts | 305° |
| 2026-04-21 10:12 | 17.28235 | -23.69922 | 30037 ft | 450 kts | 305° |
| 2026-04-21 10:12 | 17.32016 | -23.75141 | 30036 ft | 450 kts | 305° |
| 2026-04-21 10:13 | 17.35793 | -23.80357 | 30035 ft | 449 kts | 305° |
| 2026-04-21 10:13 | 17.39547 | -23.85546 | 30036 ft | 449 kts | 305° |
| 2026-04-21 10:14 | 17.43316 | -23.90760 | 30037 ft | 449 kts | 305° |
| 2026-04-21 10:14 | 17.47089 | -23.95984 | 30040 ft | 448 kts | 305° |
| 2026-04-21 10:15 | 17.50849 | -24.01192 | 30042 ft | 448 kts | 305° |
| 2026-04-21 10:15 | 17.54586 | -24.06374 | 30040 ft | 448 kts | 304° |
| 2026-04-21 10:16 | 17.58344 | -24.11590 | 30040 ft | 448 kts | 304° |
| 2026-04-21 10:16 | 17.62098 | -24.16802 | 30037 ft | 447 kts | 304° |
| 2026-04-21 10:17 | 17.65843 | -24.22009 | 30042 ft | 447 kts | 304° |
| 2026-04-21 10:17 | 17.69598 | -24.27232 | 30044 ft | 447 kts | 304° |
| 2026-04-21 10:18 | 17.73335 | -24.32442 | 30040 ft | 447 kts | 304° |
| 2026-04-21 10:18 | 17.77052 | -24.37670 | 30041 ft | 447 kts | 304° |
| 2026-04-21 10:19 | 17.80758 | -24.42896 | 30042 ft | 446 kts | 304° |
| 2026-04-21 10:19 | 17.84444 | -24.48096 | 30041 ft | 446 kts | 304° |
| 2026-04-21 10:20 | 17.88152 | -24.53329 | 30041 ft | 446 kts | 304° |
| 2026-04-21 10:20 | 17.91855 | -24.58555 | 30043 ft | 446 kts | 304° |
| 2026-04-21 10:21 | 17.95553 | -24.63781 | 30043 ft | 446 kts | 304° |
| 2026-04-21 10:21 | 17.98624 | -24.68123 | 30044 ft | 445 kts | 304° |
| 2026-04-21 10:22 | 18.02317 | -24.73348 | 30039 ft | 445 kts | 304° |
| 2026-04-21 10:22 | 18.06008 | -24.78575 | 30042 ft | 445 kts | 304° |
| 2026-04-21 10:23 | 18.09697 | -24.83804 | 30045 ft | 445 kts | 304° |
| 2026-04-21 10:23 | 18.13379 | -24.89026 | 30045 ft | 444 kts | 304° |
| 2026-04-21 10:24 | 18.17058 | -24.94248 | 30045 ft | 444 kts | 304° |
| 2026-04-21 10:24 | 18.20733 | -24.99470 | 30042 ft | 444 kts | 304° |
| 2026-04-21 10:25 | 18.24383 | -25.04660 | 30048 ft | 444 kts | 304° |
| 2026-04-21 10:25 | 18.28053 | -25.09882 | 30049 ft | 444 kts | 304° |
| 2026-04-21 10:26 | 18.31723 | -25.15108 | 30052 ft | 443 kts | 304° |
| 2026-04-21 10:26 | 18.35385 | -25.20327 | 30044 ft | 443 kts | 304° |
| 2026-04-21 10:27 | 18.39047 | -25.25552 | 30047 ft | 443 kts | 304° |
| 2026-04-21 10:27 | 18.42705 | -25.30773 | 30045 ft | 443 kts | 304° |
| 2026-04-21 10:28 | 18.46330 | -25.35953 | 30049 ft | 442 kts | 304° |
| 2026-04-21 10:28 | 18.49979 | -25.41170 | 30046 ft | 442 kts | 304° |
| 2026-04-21 10:29 | 18.53624 | -25.46386 | 30044 ft | 442 kts | 304° |
| 2026-04-21 10:29 | 18.57270 | -25.51609 | 30043 ft | 441 kts | 304° |
| 2026-04-21 10:30 | 18.60909 | -25.56826 | 30048 ft | 441 kts | 304° |
| 2026-04-21 10:30 | 18.64543 | -25.62039 | 30050 ft | 441 kts | 304° |
| 2026-04-21 10:31 | 18.68172 | -25.67250 | 30050 ft | 441 kts | 304° |
| 2026-04-21 10:31 | 18.71801 | -25.72465 | 30048 ft | 441 kts | 304° |
| 2026-04-21 10:32 | 18.75427 | -25.77680 | 30053 ft | 441 kts | 304° |
| 2026-04-21 10:32 | 18.79030 | -25.82867 | 30053 ft | 440 kts | 304° |
| 2026-04-21 10:33 | 18.82651 | -25.88083 | 30051 ft | 440 kts | 304° |
| 2026-04-21 10:33 | 18.86267 | -25.93297 | 30059 ft | 440 kts | 304° |
| 2026-04-21 10:34 | 18.89878 | -25.98509 | 30058 ft | 439 kts | 304° |
| 2026-04-21 10:34 | 18.93483 | -26.03715 | 30063 ft | 439 kts | 303° |
| 2026-04-21 10:35 | 18.97093 | -26.08914 | 30055 ft | 438 kts | 304° |
| 2026-04-21 10:35 | 19.00728 | -26.14089 | 30051 ft | 438 kts | 304° |
| 2026-04-21 10:36 | 19.04337 | -26.19225 | 30054 ft | 438 kts | 304° |
| 2026-04-21 10:36 | 19.07962 | -26.24395 | 30049 ft | 437 kts | 304° |
| 2026-04-21 10:37 | 19.11583 | -26.29568 | 30053 ft | 437 kts | 304° |
| 2026-04-21 10:37 | 19.15201 | -26.34744 | 30056 ft | 437 kts | 304° |
| 2026-04-21 10:38 | 19.18809 | -26.39908 | 30055 ft | 436 kts | 304° |
| 2026-04-21 10:38 | 19.22414 | -26.45073 | 30055 ft | 436 kts | 304° |
| 2026-04-21 10:39 | 19.26010 | -26.50229 | 30064 ft | 435 kts | 304° |
| 2026-04-21 10:39 | 19.29606 | -26.55390 | 30056 ft | 435 kts | 304° |
| 2026-04-21 10:40 | 19.33194 | -26.60544 | 30056 ft | 435 kts | 304° |
| 2026-04-21 10:40 | 19.36757 | -26.65666 | 30058 ft | 435 kts | 304° |
| 2026-04-21 10:41 | 19.40341 | -26.70822 | 30066 ft | 434 kts | 304° |
| 2026-04-21 10:41 | 19.43921 | -26.75978 | 30058 ft | 434 kts | 304° |
| 2026-04-21 10:42 | 19.47498 | -26.81133 | 30062 ft | 434 kts | 304° |
| 2026-04-21 10:42 | 19.51077 | -26.86295 | 30062 ft | 434 kts | 304° |
| 2026-04-21 10:43 | 19.54652 | -26.91456 | 30066 ft | 434 kts | 304° |
| 2026-04-21 10:43 | 19.58218 | -26.96608 | 30066 ft | 433 kts | 304° |
| 2026-04-21 10:44 | 19.61761 | -27.01731 | 29958 ft | 434 kts | 303° |
| 2026-04-21 10:44 | 19.65354 | -27.06933 | 30055 ft | 440 kts | 303° |
| 2026-04-21 10:45 | 19.68995 | -27.12211 | 30070 ft | 446 kts | 303° |
| 2026-04-21 10:45 | 19.72682 | -27.17559 | 30071 ft | 451 kts | 303° |
| 2026-04-21 10:46 | 19.76401 | -27.22953 | 30066 ft | 453 kts | 303° |
| 2026-04-21 10:46 | 19.80122 | -27.28355 | 30066 ft | 453 kts | 303° |
| 2026-04-21 10:47 | 19.83815 | -27.33723 | 30068 ft | 452 kts | 303° |
| 2026-04-21 10:47 | 19.87525 | -27.39120 | 30069 ft | 451 kts | 303° |
| 2026-04-21 10:48 | 19.91218 | -27.44499 | 30065 ft | 450 kts | 303° |
| 2026-04-21 10:48 | 19.94903 | -27.49870 | 30069 ft | 449 kts | 303° |
| 2026-04-21 10:49 | 19.98580 | -27.55236 | 30073 ft | 448 kts | 303° |
| 2026-04-21 10:49 | 20.02243 | -27.60585 | 30070 ft | 447 kts | 303° |
| 2026-04-21 10:50 | 20.05882 | -27.65905 | 30071 ft | 447 kts | 303° |
| 2026-04-21 10:50 | 20.09539 | -27.71254 | 30070 ft | 447 kts | 303° |
| 2026-04-21 10:51 | 20.13194 | -27.76607 | 30072 ft | 447 kts | 303° |
| 2026-04-21 10:51 | 20.16850 | -27.81965 | 30073 ft | 447 kts | 303° |
| 2026-04-21 10:52 | 20.20500 | -27.87321 | 30076 ft | 447 kts | 303° |
| 2026-04-21 10:52 | 20.24154 | -27.92685 | 30072 ft | 447 kts | 302° |
| 2026-04-21 10:53 | 20.27787 | -27.98025 | 30075 ft | 447 kts | 302° |
| 2026-04-21 10:53 | 20.31443 | -28.03403 | 30073 ft | 447 kts | 302° |
| 2026-04-21 10:54 | 20.35087 | -28.08769 | 30077 ft | 447 kts | 302° |
| 2026-04-21 10:54 | 20.38736 | -28.14147 | 30080 ft | 447 kts | 302° |
| 2026-04-21 10:55 | 20.42377 | -28.19517 | 30076 ft | 446 kts | 302° |
| 2026-04-21 10:55 | 20.46010 | -28.24881 | 30075 ft | 446 kts | 302° |
| 2026-04-21 10:56 | 20.49643 | -28.30250 | 30073 ft | 446 kts | 302° |
| 2026-04-21 10:56 | 20.53244 | -28.35576 | 30074 ft | 446 kts | 302° |
| 2026-04-21 10:57 | 20.56868 | -28.40942 | 30075 ft | 445 kts | 302° |
| 2026-04-21 10:57 | 20.60488 | -28.46306 | 30086 ft | 445 kts | 302° |
| 2026-04-21 10:58 | 20.64104 | -28.51671 | 30090 ft | 445 kts | 302° |
| 2026-04-21 10:58 | 20.67711 | -28.57026 | 30078 ft | 444 kts | 302° |
| 2026-04-21 10:59 | 20.71322 | -28.62393 | 30077 ft | 444 kts | 302° |
| 2026-04-21 10:59 | 20.74927 | -28.67755 | 30072 ft | 444 kts | 302° |
| 2026-04-21 11:00 | 20.78530 | -28.73121 | 30077 ft | 444 kts | 302° |
| 2026-04-21 11:00 | 20.82132 | -28.78488 | 30085 ft | 444 kts | 302° |
| 2026-04-21 11:01 | 20.85728 | -28.83853 | 30088 ft | 444 kts | 302° |
| 2026-04-21 11:01 | 20.89323 | -28.89220 | 30083 ft | 444 kts | 302° |
| 2026-04-21 11:02 | 20.94691 | -28.97245 | 30083 ft | 444 kts | 302° |
| 2026-04-21 11:02 | 20.98281 | -29.02618 | 30088 ft | 444 kts | 302° |
| 2026-04-21 11:03 | 21.01869 | -29.07993 | 30094 ft | 444 kts | 301° |
| 2026-04-21 11:03 | 21.05455 | -29.13371 | 30088 ft | 444 kts | 301° |
| 2026-04-21 11:04 | 21.09041 | -29.18754 | 30088 ft | 444 kts | 301° |
| 2026-04-21 11:04 | 21.12631 | -29.24146 | 30092 ft | 444 kts | 301° |
| 2026-04-21 11:05 | 21.16215 | -29.29537 | 30096 ft | 444 kts | 301° |
| 2026-04-21 11:05 | 21.19802 | -29.34936 | 30093 ft | 444 kts | 301° |
| 2026-04-21 11:06 | 21.23383 | -29.40331 | 30092 ft | 444 kts | 301° |
| 2026-04-21 11:06 | 21.26963 | -29.45731 | 30092 ft | 444 kts | 301° |
| 2026-04-21 11:07 | 21.30541 | -29.51133 | 30093 ft | 444 kts | 301° |
| 2026-04-21 11:07 | 21.34116 | -29.56535 | 30090 ft | 444 kts | 301° |
| 2026-04-21 11:08 | 21.37084 | -29.61025 | 30089 ft | 444 kts | 301° |
| 2026-04-21 11:08 | 21.40657 | -29.66435 | 30091 ft | 444 kts | 301° |
| 2026-04-21 11:09 | 21.44206 | -29.71813 | 30092 ft | 444 kts | 301° |
| 2026-04-21 11:09 | 21.47764 | -29.77237 | 30095 ft | 443 kts | 299° |
| 2026-04-21 11:10 | 21.50736 | -29.82983 | 30097 ft | 438 kts | 291° |
| 2026-04-21 11:10 | 21.53017 | -29.89040 | 30098 ft | 437 kts | 289° |
| 2026-04-21 11:11 | 21.55266 | -29.95113 | 30098 ft | 438 kts | 289° |
| 2026-04-21 11:11 | 21.57528 | -30.01197 | 30097 ft | 438 kts | 289° |
| 2026-04-21 11:12 | 21.59793 | -30.07277 | 30097 ft | 438 kts | 289° |
| 2026-04-21 11:12 | 21.62059 | -30.13361 | 30097 ft | 439 kts | 289° |
| 2026-04-21 11:13 | 21.64324 | -30.19452 | 30096 ft | 439 kts | 289° |
| 2026-04-21 11:13 | 21.66573 | -30.25506 | 30095 ft | 439 kts | 289° |
| 2026-04-21 11:14 | 21.68833 | -30.31599 | 30102 ft | 439 kts | 289° |
| 2026-04-21 11:14 | 21.71090 | -30.37693 | 30101 ft | 439 kts | 289° |
| 2026-04-21 11:15 | 21.73345 | -30.43787 | 30100 ft | 438 kts | 289° |
| 2026-04-21 11:15 | 21.75598 | -30.49886 | 30101 ft | 438 kts | 289° |
| 2026-04-21 11:16 | 21.77847 | -30.55981 | 30101 ft | 438 kts | 289° |
| 2026-04-21 11:16 | 21.80094 | -30.62077 | 30104 ft | 438 kts | 288° |
| 2026-04-21 11:17 | 21.82333 | -30.68162 | 30103 ft | 437 kts | 288° |
| 2026-04-21 11:17 | 21.84557 | -30.74212 | 30105 ft | 437 kts | 288° |
| 2026-04-21 11:18 | 21.86793 | -30.80305 | 30105 ft | 437 kts | 288° |
| 2026-04-21 11:18 | 21.89027 | -30.86397 | 30098 ft | 437 kts | 288° |
| 2026-04-21 11:19 | 21.91260 | -30.92496 | 30107 ft | 437 kts | 288° |
| 2026-04-21 11:19 | 21.93474 | -30.98552 | 30106 ft | 437 kts | 288° |
| 2026-04-21 11:20 | 21.95701 | -31.04652 | 30103 ft | 436 kts | 288° |
| 2026-04-21 11:20 | 21.97920 | -31.10738 | 30103 ft | 436 kts | 288° |
| 2026-04-21 11:21 | 22.00137 | -31.16825 | 30103 ft | 436 kts | 288° |
| 2026-04-21 11:21 | 22.02353 | -31.22918 | 30104 ft | 436 kts | 288° |
| 2026-04-21 11:22 | 22.04565 | -31.29010 | 30107 ft | 436 kts | 288° |
| 2026-04-21 11:22 | 22.06779 | -31.35111 | 30101 ft | 437 kts | 288° |
| 2026-04-21 11:23 | 22.08973 | -31.41169 | 30110 ft | 437 kts | 288° |
| 2026-04-21 11:23 | 22.11181 | -31.47271 | 30106 ft | 437 kts | 288° |
| 2026-04-21 11:24 | 22.13386 | -31.53375 | 30100 ft | 436 kts | 288° |
| 2026-04-21 11:24 | 22.15586 | -31.59473 | 30104 ft | 436 kts | 288° |
| 2026-04-21 11:25 | 22.17785 | -31.65576 | 30101 ft | 436 kts | 288° |
| 2026-04-21 11:25 | 22.19979 | -31.71674 | 30108 ft | 436 kts | 288° |
| 2026-04-21 11:26 | 22.22172 | -31.77778 | 30108 ft | 436 kts | 288° |
| 2026-04-21 11:26 | 22.24361 | -31.83876 | 30109 ft | 436 kts | 287° |
| 2026-04-21 11:27 | 22.26535 | -31.89944 | 30118 ft | 436 kts | 287° |
| 2026-04-21 11:27 | 22.28717 | -31.96041 | 30106 ft | 436 kts | 287° |
| 2026-04-21 11:28 | 22.30900 | -32.02150 | 30115 ft | 435 kts | 287° |
| 2026-04-21 11:28 | 22.33079 | -32.08254 | 30121 ft | 435 kts | 287° |
| 2026-04-21 11:29 | 22.35256 | -32.14363 | 30118 ft | 435 kts | 287° |
| 2026-04-21 11:29 | 22.37432 | -32.20477 | 30106 ft | 435 kts | 287° |
| 2026-04-21 11:30 | 22.39590 | -32.26548 | 30105 ft | 435 kts | 287° |
| 2026-04-21 11:30 | 22.41760 | -32.32660 | 30110 ft | 435 kts | 287° |
| 2026-04-21 11:31 | 22.43926 | -32.38771 | 30111 ft | 435 kts | 287° |
| 2026-04-21 11:31 | 22.46090 | -32.44884 | 30113 ft | 435 kts | 287° |
| 2026-04-21 11:32 | 22.48252 | -32.51000 | 30114 ft | 435 kts | 287° |
| 2026-04-21 11:32 | 22.50415 | -32.57128 | 30110 ft | 436 kts | 287° |
| 2026-04-21 11:33 | 22.52574 | -32.63252 | 30113 ft | 436 kts | 287° |
| 2026-04-21 11:33 | 22.54736 | -32.69392 | 30108 ft | 436 kts | 286° |
| 2026-04-21 11:34 | 22.56879 | -32.75488 | 30116 ft | 436 kts | 286° |
| 2026-04-21 11:34 | 22.59033 | -32.81625 | 30113 ft | 436 kts | 286° |
| 2026-04-21 11:35 | 22.61187 | -32.87767 | 30109 ft | 436 kts | 286° |
| 2026-04-21 11:35 | 22.63339 | -32.93916 | 30114 ft | 437 kts | 286° |
| 2026-04-21 11:36 | 22.65490 | -33.00068 | 30113 ft | 437 kts | 286° |
| 2026-04-21 11:36 | 22.67640 | -33.06227 | 30113 ft | 437 kts | 286° |
| 2026-04-21 11:37 | 22.69773 | -33.12346 | 30113 ft | 437 kts | 286° |
| 2026-04-21 11:37 | 22.71924 | -33.18524 | 30114 ft | 437 kts | 285° |
| 2026-04-21 11:38 | 22.74067 | -33.24690 | 30116 ft | 437 kts | 285° |
| 2026-04-21 11:38 | 22.76211 | -33.30865 | 30114 ft | 438 kts | 285° |
| 2026-04-21 11:39 | 22.78352 | -33.37042 | 30114 ft | 438 kts | 285° |
| 2026-04-21 11:39 | 22.80493 | -33.43228 | 30113 ft | 438 kts | 285° |
| 2026-04-21 11:40 | 22.82634 | -33.49422 | 30106 ft | 438 kts | 285° |
| 2026-04-21 11:40 | 22.84771 | -33.55614 | 30111 ft | 439 kts | 285° |
| 2026-04-21 11:41 | 22.86905 | -33.61805 | 30114 ft | 439 kts | 285° |
| 2026-04-21 11:41 | 22.89026 | -33.67968 | 30120 ft | 439 kts | 285° |
| 2026-04-21 11:42 | 22.91159 | -33.74175 | 30114 ft | 439 kts | 285° |
| 2026-04-21 11:42 | 22.93294 | -33.80396 | 30118 ft | 439 kts | 285° |
| 2026-04-21 11:43 | 22.95422 | -33.86606 | 30115 ft | 439 kts | 285° |
| 2026-04-21 11:43 | 22.97551 | -33.92828 | 30116 ft | 440 kts | 285° |
| 2026-04-21 11:44 | 22.99679 | -33.99050 | 30119 ft | 440 kts | 285° |
| 2026-04-21 11:44 | 23.02119 | -34.05122 | 30124 ft | 443 kts | 289° |
| 2026-04-21 11:45 | 23.04703 | -34.11197 | 30118 ft | 443 kts | 289° |
| 2026-04-21 11:45 | 23.07281 | -34.17275 | 30117 ft | 443 kts | 289° |
| 2026-04-21 11:46 | 23.09848 | -34.23363 | 30122 ft | 443 kts | 289° |
| 2026-04-21 11:46 | 23.12410 | -34.29462 | 30121 ft | 444 kts | 289° |
| 2026-04-21 11:47 | 23.14973 | -34.35574 | 30120 ft | 444 kts | 289° |
| 2026-04-21 11:47 | 23.17531 | -34.41680 | 30121 ft | 444 kts | 288° |
| 2026-04-21 11:48 | 23.20088 | -34.47791 | 30124 ft | 444 kts | 288° |
| 2026-04-21 11:48 | 23.22630 | -34.53874 | 30123 ft | 444 kts | 288° |
| 2026-04-21 11:49 | 23.25184 | -34.59995 | 30124 ft | 445 kts | 288° |
| 2026-04-21 11:49 | 23.27739 | -34.66124 | 30123 ft | 445 kts | 288° |
| 2026-04-21 11:50 | 23.30293 | -34.72262 | 30123 ft | 445 kts | 288° |
| 2026-04-21 11:50 | 23.32842 | -34.78395 | 30124 ft | 445 kts | 288° |
| 2026-04-21 11:51 | 23.35395 | -34.84544 | 30126 ft | 445 kts | 288° |
| 2026-04-21 11:51 | 23.37944 | -34.90692 | 30122 ft | 446 kts | 288° |
| 2026-04-21 11:52 | 23.40477 | -34.96809 | 30126 ft | 446 kts | 288° |
| 2026-04-21 11:52 | 23.43024 | -35.02970 | 30126 ft | 446 kts | 288° |
| 2026-04-21 11:53 | 23.45570 | -35.09135 | 30127 ft | 446 kts | 288° |
| 2026-04-21 11:53 | 23.48116 | -35.15308 | 30127 ft | 447 kts | 288° |
| 2026-04-21 11:54 | 23.50662 | -35.21491 | 30130 ft | 447 kts | 288° |
| 2026-04-21 11:54 | 23.53190 | -35.27637 | 30127 ft | 447 kts | 288° |
| 2026-04-21 11:55 | 23.55733 | -35.33829 | 30129 ft | 447 kts | 288° |
| 2026-04-21 11:55 | 23.58275 | -35.40026 | 30132 ft | 447 kts | 288° |
| 2026-04-21 11:56 | 23.60384 | -35.45175 | 30131 ft | 448 kts | 288° |
| 2026-04-21 11:56 | 23.62921 | -35.51376 | 30131 ft | 448 kts | 288° |
| 2026-04-21 11:57 | 23.65457 | -35.57584 | 30132 ft | 448 kts | 288° |
| 2026-04-21 11:57 | 23.67995 | -35.63804 | 30132 ft | 448 kts | 288° |
| 2026-04-21 11:58 | 23.70531 | -35.70027 | 30132 ft | 449 kts | 288° |
| 2026-04-21 11:58 | 23.73068 | -35.76262 | 30134 ft | 449 kts | 288° |
| 2026-04-21 11:59 | 23.75584 | -35.82455 | 30132 ft | 449 kts | 288° |
| 2026-04-21 11:59 | 23.78115 | -35.88692 | 30133 ft | 449 kts | 288° |
| 2026-04-21 12:00 | 23.80645 | -35.94936 | 30131 ft | 450 kts | 288° |
| 2026-04-21 12:00 | 23.83173 | -36.01181 | 30118 ft | 450 kts | 288° |
| 2026-04-21 12:01 | 23.85702 | -36.07439 | 30119 ft | 450 kts | 288° |
| 2026-04-21 12:01 | 23.88228 | -36.13699 | 30123 ft | 450 kts | 288° |
| 2026-04-21 12:02 | 23.92019 | -36.23110 | 30128 ft | 451 kts | 288° |
| 2026-04-21 12:03 | 23.94541 | -36.29382 | 30135 ft | 451 kts | 288° |
| 2026-04-21 12:03 | 23.97050 | -36.35630 | 30137 ft | 452 kts | 288° |
| 2026-04-21 12:04 | 23.99575 | -36.41925 | 30138 ft | 452 kts | 288° |
| 2026-04-21 12:04 | 24.02103 | -36.48239 | 30134 ft | 453 kts | 288° |
| 2026-04-21 12:05 | 24.04627 | -36.54549 | 30137 ft | 453 kts | 288° |
| 2026-04-21 12:05 | 24.07149 | -36.60866 | 30144 ft | 453 kts | 288° |
| 2026-04-21 12:06 | 24.09671 | -36.67190 | 30140 ft | 453 kts | 288° |
| 2026-04-21 12:06 | 24.12191 | -36.73519 | 30139 ft | 454 kts | 288° |
| 2026-04-21 12:07 | 24.14712 | -36.79859 | 30133 ft | 454 kts | 288° |
| 2026-04-21 12:07 | 24.17219 | -36.86172 | 30141 ft | 455 kts | 288° |
| 2026-04-21 12:08 | 24.19738 | -36.92526 | 30139 ft | 455 kts | 288° |
| 2026-04-21 12:08 | 24.22255 | -36.98885 | 30139 ft | 455 kts | 288° |
| 2026-04-21 12:09 | 24.24773 | -37.05253 | 30142 ft | 456 kts | 288° |
| 2026-04-21 12:09 | 24.27292 | -37.11635 | 30139 ft | 456 kts | 288° |
| 2026-04-21 12:10 | 24.29808 | -37.18015 | 30144 ft | 456 kts | 288° |
| 2026-04-21 12:10 | 24.32326 | -37.24412 | 30145 ft | 456 kts | 288° |
| 2026-04-21 12:11 | 24.34837 | -37.30801 | 30142 ft | 456 kts | 288° |
| 2026-04-21 12:11 | 24.37331 | -37.37156 | 30142 ft | 457 kts | 288° |
| 2026-04-21 12:12 | 24.39841 | -37.43561 | 30141 ft | 457 kts | 288° |
| 2026-04-21 12:12 | 24.42350 | -37.49973 | 30140 ft | 457 kts | 288° |
| 2026-04-21 12:13 | 24.44858 | -37.56391 | 30139 ft | 458 kts | 288° |
| 2026-04-21 12:13 | 24.47366 | -37.62819 | 30140 ft | 458 kts | 288° |
| 2026-04-21 12:14 | 24.49872 | -37.69251 | 30143 ft | 458 kts | 288° |
| 2026-04-21 12:14 | 24.52376 | -37.75688 | 30146 ft | 458 kts | 288° |
| 2026-04-21 12:15 | 24.54879 | -37.82132 | 30150 ft | 459 kts | 288° |
| 2026-04-21 12:15 | 24.57380 | -37.88581 | 30147 ft | 459 kts | 288° |
| 2026-04-21 12:16 | 24.59880 | -37.95035 | 30141 ft | 459 kts | 288° |
| 2026-04-21 12:16 | 24.62377 | -38.01495 | 30143 ft | 459 kts | 288° |
| 2026-04-21 12:17 | 24.64872 | -38.07956 | 30151 ft | 459 kts | 288° |
| 2026-04-21 12:17 | 24.67368 | -38.14429 | 30145 ft | 460 kts | 288° |
| 2026-04-21 12:18 | 24.69860 | -38.20904 | 30147 ft | 460 kts | 288° |
| 2026-04-21 12:18 | 24.72332 | -38.27336 | 30148 ft | 460 kts | 288° |
| 2026-04-21 12:19 | 24.74821 | -38.33820 | 30136 ft | 460 kts | 288° |
| 2026-04-21 12:19 | 24.77313 | -38.40324 | 30137 ft | 460 kts | 288° |
| 2026-04-21 12:20 | 24.79800 | -38.46825 | 30156 ft | 461 kts | 289° |
| 2026-04-21 12:20 | 24.82289 | -38.53340 | 30161 ft | 461 kts | 289° |
| 2026-04-21 12:21 | 24.84759 | -38.59817 | 30145 ft | 462 kts | 289° |
| 2026-04-21 12:21 | 24.87248 | -38.66352 | 30152 ft | 463 kts | 289° |
| 2026-04-21 12:22 | 24.89738 | -38.72900 | 30147 ft | 463 kts | 289° |
| 2026-04-21 12:22 | 24.92227 | -38.79456 | 30148 ft | 464 kts | 289° |
| 2026-04-21 12:23 | 24.94718 | -38.86028 | 30151 ft | 464 kts | 289° |
| 2026-04-21 12:23 | 24.97204 | -38.92597 | 30152 ft | 465 kts | 289° |
| 2026-04-21 12:24 | 24.99690 | -38.99176 | 30152 ft | 465 kts | 289° |
| 2026-04-21 12:24 | 25.02293 | -39.05675 | 30152 ft | 467 kts | 291° |
| 2026-04-21 12:25 | 25.05083 | -39.12151 | 30155 ft | 468 kts | 291° |
| 2026-04-21 12:25 | 25.07874 | -39.18638 | 30153 ft | 468 kts | 291° |
| 2026-04-21 12:26 | 25.10635 | -39.25138 | 30158 ft | 468 kts | 291° |
| 2026-04-21 12:26 | 25.13386 | -39.31665 | 30157 ft | 469 kts | 291° |
| 2026-04-21 12:27 | 25.16131 | -39.38196 | 30155 ft | 469 kts | 291° |
| 2026-04-21 12:27 | 25.18877 | -39.44737 | 30157 ft | 470 kts | 291° |
| 2026-04-21 12:28 | 25.21609 | -39.51251 | 30153 ft | 470 kts | 291° |
| 2026-04-21 12:28 | 25.24357 | -39.57814 | 30181 ft | 472 kts | 291° |
| 2026-04-21 12:28 | 25.25737 | -39.61112 | 30482 ft | 471 kts | 291° |
| 2026-04-21 12:29 | 25.27104 | -39.64379 | 31009 ft | 465 kts | 291° |
| 2026-04-21 12:29 | 25.28451 | -39.67599 | 31609 ft | 457 kts | 290° |
| 2026-04-21 12:29 | 25.29779 | -39.70774 | 32132 ft | 452 kts | 290° |
| 2026-04-21 12:30 | 25.32408 | -39.77084 | 32159 ft | 451 kts | 290° |
| 2026-04-21 12:30 | 25.35031 | -39.83393 | 32162 ft | 451 kts | 290° |
| 2026-04-21 12:31 | 25.37658 | -39.89715 | 32162 ft | 452 kts | 290° |
| 2026-04-21 12:31 | 25.40269 | -39.96007 | 32160 ft | 453 kts | 290° |
| 2026-04-21 12:32 | 25.42897 | -40.02349 | 32163 ft | 454 kts | 290° |
| 2026-04-21 12:32 | 25.45536 | -40.08724 | 32163 ft | 455 kts | 290° |
| 2026-04-21 12:33 | 25.48171 | -40.15100 | 32161 ft | 456 kts | 290° |
| 2026-04-21 12:33 | 25.50808 | -40.21490 | 32161 ft | 457 kts | 290° |
| 2026-04-21 12:34 | 25.53447 | -40.27895 | 32165 ft | 457 kts | 290° |
| 2026-04-21 12:34 | 25.56086 | -40.34308 | 32160 ft | 458 kts | 291° |
| 2026-04-21 12:35 | 25.58725 | -40.40732 | 32163 ft | 458 kts | 291° |
| 2026-04-21 12:35 | 25.61348 | -40.47127 | 32161 ft | 459 kts | 291° |
| 2026-04-21 12:36 | 25.63985 | -40.53566 | 32165 ft | 459 kts | 291° |
| 2026-04-21 12:36 | 25.66623 | -40.60017 | 32165 ft | 460 kts | 291° |
| 2026-04-21 12:37 | 25.69261 | -40.66477 | 32166 ft | 460 kts | 291° |
| 2026-04-21 12:37 | 25.71904 | -40.72958 | 32166 ft | 461 kts | 291° |
| 2026-04-21 12:38 | 25.74541 | -40.79438 | 32163 ft | 461 kts | 291° |
| 2026-04-21 12:38 | 25.77164 | -40.85891 | 32164 ft | 462 kts | 291° |
| 2026-04-21 12:39 | 25.79806 | -40.92399 | 32165 ft | 462 kts | 291° |
| 2026-04-21 12:39 | 25.82445 | -40.98912 | 32164 ft | 462 kts | 291° |
| 2026-04-21 12:40 | 25.85080 | -41.05425 | 32167 ft | 463 kts | 291° |
| 2026-04-21 12:40 | 25.87716 | -41.11951 | 32166 ft | 463 kts | 291° |
| 2026-04-21 12:41 | 25.90353 | -41.18489 | 32169 ft | 464 kts | 291° |
| 2026-04-21 12:41 | 25.92991 | -41.25040 | 32160 ft | 464 kts | 291° |
| 2026-04-21 12:42 | 25.95611 | -41.31556 | 32166 ft | 464 kts | 291° |
| 2026-04-21 12:42 | 25.98247 | -41.38120 | 32164 ft | 465 kts | 291° |
| 2026-04-21 12:43 | 26.00878 | -41.44685 | 32172 ft | 465 kts | 291° |
| 2026-04-21 12:43 | 26.03506 | -41.51253 | 32176 ft | 465 kts | 291° |
| 2026-04-21 12:44 | 26.06115 | -41.57783 | 32171 ft | 465 kts | 291° |
| 2026-04-21 12:44 | 26.08740 | -41.64361 | 32167 ft | 465 kts | 291° |
| 2026-04-21 12:45 | 26.11361 | -41.70942 | 32173 ft | 465 kts | 291° |
| 2026-04-21 12:45 | 26.13538 | -41.76417 | 32174 ft | 465 kts | 291° |
| 2026-04-21 12:46 | 26.16156 | -41.83010 | 32167 ft | 466 kts | 291° |
| 2026-04-21 12:46 | 26.18773 | -41.89608 | 32178 ft | 466 kts | 291° |
| 2026-04-21 12:47 | 26.21388 | -41.96214 | 32181 ft | 466 kts | 291° |
| 2026-04-21 12:47 | 26.24001 | -42.02826 | 32159 ft | 467 kts | 291° |
| 2026-04-21 12:48 | 26.26616 | -42.09452 | 32176 ft | 467 kts | 291° |
| 2026-04-21 12:48 | 26.29226 | -42.16077 | 32180 ft | 467 kts | 291° |
| 2026-04-21 12:49 | 26.31833 | -42.22705 | 32177 ft | 467 kts | 291° |
| 2026-04-21 12:49 | 26.34428 | -42.29313 | 32164 ft | 467 kts | 291° |
| 2026-04-21 12:50 | 26.37034 | -42.35960 | 32169 ft | 468 kts | 291° |
| 2026-04-21 12:50 | 26.39638 | -42.42614 | 32167 ft | 468 kts | 291° |
| 2026-04-21 12:51 | 26.42239 | -42.49270 | 32171 ft | 468 kts | 291° |
| 2026-04-21 12:51 | 26.44843 | -42.55943 | 32172 ft | 468 kts | 291° |
| 2026-04-21 12:52 | 26.47440 | -42.62611 | 32174 ft | 469 kts | 291° |
| 2026-04-21 12:52 | 26.50021 | -42.69248 | 32172 ft | 469 kts | 291° |
| 2026-04-21 12:53 | 26.52614 | -42.75929 | 32172 ft | 469 kts | 291° |
| 2026-04-21 12:53 | 26.55209 | -42.82624 | 32172 ft | 469 kts | 291° |
| 2026-04-21 12:54 | 26.57799 | -42.89319 | 32176 ft | 470 kts | 291° |
| 2026-04-21 12:54 | 26.60388 | -42.96019 | 32176 ft | 470 kts | 291° |
| 2026-04-21 12:55 | 26.62975 | -43.02729 | 32177 ft | 470 kts | 291° |
| 2026-04-21 12:55 | 26.65561 | -43.09444 | 32175 ft | 470 kts | 291° |
| 2026-04-21 12:56 | 26.68127 | -43.16120 | 32176 ft | 470 kts | 291° |
| 2026-04-21 12:56 | 26.70708 | -43.22847 | 32174 ft | 470 kts | 291° |
| 2026-04-21 12:57 | 26.73284 | -43.29571 | 32175 ft | 471 kts | 292° |
| 2026-04-21 12:57 | 26.75862 | -43.36313 | 32175 ft | 471 kts | 292° |
| 2026-04-21 12:58 | 26.78435 | -43.43051 | 32176 ft | 471 kts | 292° |
| 2026-04-21 12:58 | 26.81005 | -43.49795 | 32178 ft | 471 kts | 292° |
| 2026-04-21 12:59 | 26.83574 | -43.56547 | 32177 ft | 471 kts | 292° |
| 2026-04-21 12:59 | 26.86141 | -43.63305 | 32178 ft | 471 kts | 292° |
| 2026-04-21 13:00 | 26.88704 | -43.70065 | 32178 ft | 472 kts | 292° |
| 2026-04-21 13:00 | 26.91249 | -43.76789 | 32177 ft | 472 kts | 292° |
| 2026-04-21 13:01 | 26.93808 | -43.83562 | 32174 ft | 472 kts | 292° |
| 2026-04-21 13:01 | 26.96364 | -43.90338 | 32177 ft | 472 kts | 292° |
| 2026-04-21 13:02 | 26.98915 | -43.97110 | 32178 ft | 471 kts | 292° |
| 2026-04-21 13:02 | 27.02672 | -44.07303 | 32181 ft | 471 kts | 291° |
| 2026-04-21 13:03 | 27.05113 | -44.14123 | 32175 ft | 471 kts | 291° |
| 2026-04-21 13:03 | 27.07556 | -44.20951 | 32175 ft | 471 kts | 291° |
| 2026-04-21 13:04 | 27.10002 | -44.27774 | 32179 ft | 471 kts | 291° |
| 2026-04-21 13:04 | 27.12435 | -44.34561 | 32176 ft | 471 kts | 291° |
| 2026-04-21 13:05 | 27.14878 | -44.41389 | 32174 ft | 471 kts | 291° |
| 2026-04-21 13:05 | 27.17319 | -44.48223 | 32177 ft | 471 kts | 291° |
| 2026-04-21 13:06 | 27.19757 | -44.55061 | 32175 ft | 471 kts | 291° |
| 2026-04-21 13:06 | 27.22193 | -44.61908 | 32174 ft | 471 kts | 291° |
| 2026-04-21 13:07 | 27.24624 | -44.68751 | 32175 ft | 471 kts | 291° |
| 2026-04-21 13:07 | 27.27048 | -44.75588 | 32173 ft | 471 kts | 291° |
| 2026-04-21 13:08 | 27.29464 | -44.82415 | 32174 ft | 471 kts | 291° |
| 2026-04-21 13:08 | 27.31883 | -44.89261 | 32178 ft | 471 kts | 291° |
| 2026-04-21 13:09 | 27.34299 | -44.96114 | 32178 ft | 471 kts | 291° |
| 2026-04-21 13:09 | 27.36715 | -45.02978 | 32176 ft | 471 kts | 291° |
| 2026-04-21 13:10 | 27.39130 | -45.09849 | 32175 ft | 471 kts | 291° |
| 2026-04-21 13:10 | 27.41538 | -45.16716 | 32177 ft | 471 kts | 291° |
| 2026-04-21 13:11 | 27.43927 | -45.23541 | 32179 ft | 471 kts | 291° |
| 2026-04-21 13:11 | 27.46329 | -45.30414 | 32174 ft | 471 kts | 291° |
| 2026-04-21 13:12 | 27.48726 | -45.37286 | 32176 ft | 471 kts | 291° |
| 2026-04-21 13:12 | 27.51122 | -45.44170 | 32176 ft | 471 kts | 291° |
| 2026-04-21 13:13 | 27.53511 | -45.51044 | 32176 ft | 471 kts | 291° |
| 2026-04-21 13:13 | 27.55898 | -45.57925 | 32177 ft | 471 kts | 291° |
| 2026-04-21 13:14 | 27.58279 | -45.64802 | 32175 ft | 471 kts | 291° |
| 2026-04-21 13:14 | 27.60642 | -45.71641 | 32173 ft | 470 kts | 291° |
| 2026-04-21 13:15 | 27.63017 | -45.78524 | 32177 ft | 470 kts | 291° |
| 2026-04-21 13:15 | 27.65385 | -45.85404 | 32173 ft | 470 kts | 291° |
| 2026-04-21 13:16 | 27.67737 | -45.92248 | 32171 ft | 470 kts | 291° |
| 2026-04-21 13:16 | 27.70096 | -45.99124 | 32175 ft | 470 kts | 291° |
| 2026-04-21 13:17 | 27.72455 | -46.06014 | 32173 ft | 470 kts | 291° |
| 2026-04-21 13:17 | 27.74810 | -46.12906 | 32172 ft | 470 kts | 291° |
| 2026-04-21 13:18 | 27.77160 | -46.19795 | 32170 ft | 470 kts | 291° |
| 2026-04-21 13:18 | 27.79505 | -46.26683 | 32175 ft | 470 kts | 291° |
| 2026-04-21 13:19 | 27.81846 | -46.33572 | 32172 ft | 470 kts | 291° |
| 2026-04-21 13:19 | 27.84183 | -46.40463 | 32170 ft | 470 kts | 291° |
| 2026-04-21 13:20 | 27.86516 | -46.47356 | 32171 ft | 469 kts | 291° |
| 2026-04-21 13:20 | 27.88831 | -46.54208 | 32171 ft | 469 kts | 291° |
| 2026-04-21 13:21 | 27.91158 | -46.61107 | 32172 ft | 469 kts | 291° |
| 2026-04-21 13:21 | 27.93480 | -46.68008 | 32172 ft | 469 kts | 291° |
| 2026-04-21 13:22 | 27.95800 | -46.74914 | 32169 ft | 469 kts | 291° |
| 2026-04-21 13:22 | 27.98114 | -46.81814 | 32169 ft | 469 kts | 291° |
| 2026-04-21 13:23 | 28.00427 | -46.88724 | 32171 ft | 469 kts | 291° |
| 2026-04-21 13:23 | 28.02736 | -46.95637 | 32172 ft | 469 kts | 291° |
| 2026-04-21 13:24 | 28.05024 | -47.02500 | 32173 ft | 469 kts | 291° |
| 2026-04-21 13:24 | 28.07326 | -47.09419 | 32173 ft | 469 kts | 291° |
| 2026-04-21 13:25 | 28.09622 | -47.16335 | 32170 ft | 469 kts | 291° |
| 2026-04-21 13:25 | 28.11917 | -47.23258 | 32166 ft | 469 kts | 291° |
| 2026-04-21 13:26 | 28.14208 | -47.30182 | 32179 ft | 469 kts | 291° |
| 2026-04-21 13:26 | 28.16495 | -47.37110 | 32168 ft | 469 kts | 291° |
| 2026-04-21 13:27 | 28.18779 | -47.44042 | 32167 ft | 469 kts | 291° |
| 2026-04-21 13:27 | 28.21063 | -47.50985 | 32182 ft | 469 kts | 291° |
| 2026-04-21 13:28 | 28.23328 | -47.57886 | 32181 ft | 469 kts | 291° |
| 2026-04-21 13:28 | 28.25602 | -47.64830 | 32180 ft | 470 kts | 291° |
| 2026-04-21 13:29 | 28.27872 | -47.71773 | 32165 ft | 470 kts | 291° |
| 2026-04-21 13:29 | 28.30140 | -47.78724 | 32163 ft | 470 kts | 291° |
| 2026-04-21 13:30 | 28.32405 | -47.85679 | 32176 ft | 470 kts | 291° |
| 2026-04-21 13:30 | 28.34668 | -47.92641 | 32173 ft | 470 kts | 291° |
| 2026-04-21 13:31 | 28.36548 | -47.98437 | 32173 ft | 470 kts | 291° |
| 2026-04-21 13:31 | 28.38803 | -48.05401 | 32163 ft | 470 kts | 291° |
| 2026-04-21 13:32 | 28.41054 | -48.12367 | 32178 ft | 470 kts | 291° |
| 2026-04-21 13:32 | 28.43302 | -48.19336 | 32171 ft | 470 kts | 291° |
| 2026-04-21 13:33 | 28.45548 | -48.26314 | 32168 ft | 470 kts | 291° |
| 2026-04-21 13:33 | 28.47774 | -48.33244 | 32172 ft | 469 kts | 290° |
| 2026-04-21 13:34 | 28.50008 | -48.40212 | 32170 ft | 469 kts | 290° |
| 2026-04-21 13:34 | 28.52242 | -48.47193 | 32176 ft | 469 kts | 290° |
| 2026-04-21 13:35 | 28.54474 | -48.54185 | 32170 ft | 469 kts | 290° |
| 2026-04-21 13:35 | 28.56695 | -48.61155 | 32174 ft | 469 kts | 290° |
| 2026-04-21 13:36 | 28.58900 | -48.68090 | 32169 ft | 469 kts | 290° |
| 2026-04-21 13:36 | 28.61114 | -48.75064 | 32175 ft | 468 kts | 290° |
| 2026-04-21 13:37 | 28.63324 | -48.82042 | 32174 ft | 468 kts | 290° |
| 2026-04-21 13:37 | 28.65529 | -48.89019 | 32168 ft | 468 kts | 290° |
| 2026-04-21 13:38 | 28.67729 | -48.95993 | 32174 ft | 468 kts | 290° |
| 2026-04-21 13:38 | 28.69924 | -49.02967 | 32167 ft | 468 kts | 291° |
| 2026-04-21 13:39 | 28.72116 | -49.09946 | 32171 ft | 467 kts | 291° |
| 2026-04-21 13:39 | 28.74304 | -49.16925 | 32170 ft | 467 kts | 291° |
| 2026-04-21 13:40 | 28.76475 | -49.23863 | 32168 ft | 467 kts | 291° |
| 2026-04-21 13:40 | 28.78653 | -49.30841 | 32167 ft | 467 kts | 291° |
| 2026-04-21 13:41 | 28.80829 | -49.37824 | 32176 ft | 467 kts | 291° |
| 2026-04-21 13:41 | 28.83000 | -49.44805 | 32168 ft | 467 kts | 291° |
| 2026-04-21 13:42 | 28.85168 | -49.51793 | 32172 ft | 467 kts | 291° |
| 2026-04-21 13:42 | 28.87331 | -49.58781 | 32169 ft | 467 kts | 291° |
| 2026-04-21 13:43 | 28.89492 | -49.65775 | 32165 ft | 467 kts | 291° |
| 2026-04-21 13:43 | 28.91651 | -49.72777 | 32169 ft | 467 kts | 291° |
| 2026-04-21 13:44 | 28.93789 | -49.79727 | 32168 ft | 467 kts | 291° |
| 2026-04-21 13:44 | 28.95940 | -49.86733 | 32169 ft | 467 kts | 291° |
| 2026-04-21 13:45 | 28.98084 | -49.93730 | 32168 ft | 467 kts | 291° |
| 2026-04-21 13:45 | 29.00188 | -50.00758 | 32164 ft | 468 kts | 288° |
| 2026-04-21 13:46 | 29.01809 | -50.07952 | 32173 ft | 468 kts | 286° |
| 2026-04-21 13:46 | 29.03366 | -50.15185 | 32165 ft | 468 kts | 286° |
| 2026-04-21 13:47 | 29.04931 | -50.22414 | 32168 ft | 468 kts | 286° |
| 2026-04-21 13:47 | 29.06507 | -50.29647 | 32167 ft | 469 kts | 286° |
| 2026-04-21 13:48 | 29.08084 | -50.36877 | 32174 ft | 469 kts | 286° |
| 2026-04-21 13:48 | 29.09650 | -50.44076 | 32165 ft | 469 kts | 286° |
| 2026-04-21 13:49 | 29.11225 | -50.51340 | 32166 ft | 469 kts | 286° |
| 2026-04-21 13:49 | 29.12793 | -50.58593 | 32168 ft | 470 kts | 286° |
| 2026-04-21 13:50 | 29.14347 | -50.65803 | 32168 ft | 470 kts | 286° |
| 2026-04-21 13:50 | 29.15907 | -50.73060 | 32169 ft | 470 kts | 286° |
| 2026-04-21 13:51 | 29.17462 | -50.80318 | 32168 ft | 470 kts | 286° |
| 2026-04-21 13:51 | 29.19016 | -50.87589 | 32167 ft | 469 kts | 285° |
| 2026-04-21 13:52 | 29.20563 | -50.94844 | 32165 ft | 469 kts | 285° |
| 2026-04-21 13:52 | 29.22106 | -51.02107 | 32168 ft | 469 kts | 285° |
| 2026-04-21 13:53 | 29.23639 | -51.09338 | 32167 ft | 469 kts | 285° |
| 2026-04-21 13:53 | 29.25172 | -51.16594 | 32166 ft | 469 kts | 285° |
| 2026-04-21 13:54 | 29.26704 | -51.23860 | 32167 ft | 469 kts | 285° |
| 2026-04-21 13:54 | 29.28231 | -51.31128 | 32167 ft | 469 kts | 285° |
| 2026-04-21 13:55 | 29.29755 | -51.38403 | 32164 ft | 469 kts | 285° |
| 2026-04-21 13:55 | 29.31274 | -51.45673 | 32161 ft | 469 kts | 285° |
| 2026-04-21 13:56 | 29.32789 | -51.52947 | 32163 ft | 469 kts | 285° |
| 2026-04-21 13:56 | 29.34300 | -51.60222 | 32163 ft | 469 kts | 285° |
| 2026-04-21 13:57 | 29.35808 | -51.67501 | 32162 ft | 470 kts | 285° |
| 2026-04-21 13:57 | 29.37314 | -51.74795 | 32161 ft | 470 kts | 285° |
| 2026-04-21 13:58 | 29.38808 | -51.82052 | 32161 ft | 470 kts | 284° |
| 2026-04-21 13:58 | 29.40306 | -51.89345 | 32162 ft | 470 kts | 284° |
| 2026-04-21 13:59 | 29.41799 | -51.96643 | 32161 ft | 470 kts | 284° |
| 2026-04-21 13:59 | 29.43290 | -52.03946 | 32156 ft | 470 kts | 284° |
| 2026-04-21 14:00 | 29.44766 | -52.11199 | 32160 ft | 470 kts | 284° |
| 2026-04-21 14:00 | 29.46246 | -52.18493 | 32158 ft | 469 kts | 284° |
| 2026-04-21 14:01 | 29.47723 | -52.25795 | 32158 ft | 469 kts | 284° |
| 2026-04-21 14:01 | 29.49194 | -52.33093 | 32154 ft | 469 kts | 284° |
| 2026-04-21 14:02 | 29.50661 | -52.40389 | 32160 ft | 469 kts | 284° |
| 2026-04-21 14:03 | 29.52851 | -52.51322 | 32159 ft | 469 kts | 284° |
| 2026-04-21 14:03 | 29.54307 | -52.58617 | 32159 ft | 468 kts | 284° |
| 2026-04-21 14:04 | 29.55759 | -52.65915 | 32158 ft | 468 kts | 284° |
| 2026-04-21 14:04 | 29.57203 | -52.73194 | 32157 ft | 468 kts | 284° |
| 2026-04-21 14:05 | 29.58635 | -52.80435 | 32156 ft | 468 kts | 284° |
| 2026-04-21 14:05 | 29.60073 | -52.87730 | 32157 ft | 467 kts | 283° |
| 2026-04-21 14:06 | 29.61506 | -52.95023 | 32154 ft | 467 kts | 283° |
| 2026-04-21 14:06 | 29.62935 | -53.02313 | 32149 ft | 467 kts | 283° |
| 2026-04-21 14:07 | 29.64359 | -53.09601 | 32149 ft | 467 kts | 283° |
| 2026-04-21 14:07 | 29.65778 | -53.16892 | 32149 ft | 467 kts | 283° |
| 2026-04-21 14:08 | 29.67197 | -53.24201 | 32151 ft | 468 kts | 283° |
| 2026-04-21 14:08 | 29.68600 | -53.31449 | 32148 ft | 468 kts | 283° |
| 2026-04-21 14:09 | 29.70010 | -53.38757 | 32145 ft | 468 kts | 283° |
| 2026-04-21 14:09 | 29.71416 | -53.46066 | 32143 ft | 468 kts | 283° |
| 2026-04-21 14:10 | 29.72819 | -53.53384 | 32141 ft | 468 kts | 283° |
| 2026-04-21 14:10 | 29.74218 | -53.60701 | 32142 ft | 468 kts | 283° |
| 2026-04-21 14:11 | 29.75613 | -53.68025 | 32144 ft | 468 kts | 282° |
| 2026-04-21 14:11 | 29.77004 | -53.75347 | 32145 ft | 468 kts | 282° |
| 2026-04-21 14:12 | 29.78390 | -53.82668 | 32140 ft | 468 kts | 282° |
| 2026-04-21 14:12 | 29.79771 | -53.89989 | 32139 ft | 468 kts | 282° |
| 2026-04-21 14:13 | 29.81148 | -53.97308 | 32138 ft | 468 kts | 282° |
| 2026-04-21 14:13 | 29.82520 | -54.04625 | 32139 ft | 467 kts | 282° |
| 2026-04-21 14:14 | 29.83881 | -54.11903 | 32131 ft | 467 kts | 282° |
| 2026-04-21 14:14 | 29.85243 | -54.19215 | 32132 ft | 467 kts | 282° |
| 2026-04-21 14:15 | 29.86600 | -54.26524 | 32136 ft | 466 kts | 282° |
| 2026-04-21 14:15 | 29.87955 | -54.33846 | 32132 ft | 466 kts | 282° |
| 2026-04-21 14:16 | 29.89304 | -54.41155 | 32129 ft | 466 kts | 281° |
| 2026-04-21 14:16 | 29.90647 | -54.48460 | 32131 ft | 466 kts | 281° |
| 2026-04-21 14:17 | 29.91977 | -54.55715 | 32125 ft | 466 kts | 281° |
| 2026-04-21 14:17 | 29.93312 | -54.63020 | 32125 ft | 465 kts | 281° |
| 2026-04-21 14:18 | 29.94643 | -54.70329 | 32125 ft | 465 kts | 281° |
| 2026-04-21 14:18 | 29.95968 | -54.77629 | 32128 ft | 465 kts | 281° |
| 2026-04-21 14:19 | 29.97288 | -54.84927 | 32121 ft | 465 kts | 281° |
| 2026-04-21 14:19 | 29.98381 | -54.90988 | 32122 ft | 464 kts | 281° |
| 2026-04-21 14:20 | 29.99694 | -54.98278 | 32117 ft | 464 kts | 282° |
| 2026-04-21 14:20 | 30.01496 | -55.05416 | 32126 ft | 464 kts | 288° |
| 2026-04-21 14:21 | 30.03570 | -55.12464 | 32122 ft | 464 kts | 288° |
| 2026-04-21 14:21 | 30.05633 | -55.19513 | 32112 ft | 463 kts | 288° |
| 2026-04-21 14:22 | 30.07674 | -55.26575 | 32112 ft | 463 kts | 287° |
| 2026-04-21 14:22 | 30.09700 | -55.33628 | 32112 ft | 463 kts | 287° |
| 2026-04-21 14:23 | 30.11721 | -55.40688 | 32109 ft | 462 kts | 287° |
| 2026-04-21 14:23 | 30.13737 | -55.47746 | 32109 ft | 462 kts | 287° |
| 2026-04-21 14:24 | 30.15736 | -55.54755 | 32106 ft | 462 kts | 287° |
| 2026-04-21 14:24 | 30.17742 | -55.61807 | 32106 ft | 462 kts | 287° |
| 2026-04-21 14:25 | 30.19744 | -55.68860 | 32105 ft | 462 kts | 287° |
| 2026-04-21 14:25 | 30.21742 | -55.75916 | 32100 ft | 462 kts | 287° |
| 2026-04-21 14:26 | 30.23738 | -55.82980 | 32104 ft | 462 kts | 287° |
| 2026-04-21 14:26 | 30.25728 | -55.90038 | 32102 ft | 462 kts | 287° |
| 2026-04-21 14:27 | 30.27715 | -55.97103 | 32096 ft | 462 kts | 287° |
| 2026-04-21 14:27 | 30.29698 | -56.04171 | 32099 ft | 462 kts | 287° |
| 2026-04-21 14:28 | 30.31678 | -56.11243 | 32096 ft | 462 kts | 287° |
| 2026-04-21 14:28 | 30.33644 | -56.18281 | 32101 ft | 462 kts | 287° |
| 2026-04-21 14:29 | 30.35619 | -56.25372 | 32094 ft | 463 kts | 286° |
| 2026-04-21 14:29 | 30.37590 | -56.32460 | 32097 ft | 463 kts | 286° |
| 2026-04-21 14:30 | 30.39560 | -56.39563 | 32091 ft | 463 kts | 286° |
| 2026-04-21 14:30 | 30.41524 | -56.46664 | 32091 ft | 463 kts | 286° |
| 2026-04-21 14:31 | 30.43484 | -56.53762 | 32095 ft | 462 kts | 286° |
| 2026-04-21 14:31 | 30.45437 | -56.60856 | 32086 ft | 462 kts | 286° |
| 2026-04-21 14:32 | 30.47388 | -56.67956 | 32081 ft | 462 kts | 286° |
| 2026-04-21 14:32 | 30.49322 | -56.75014 | 32081 ft | 462 kts | 285° |
| 2026-04-21 14:33 | 30.51264 | -56.82116 | 32079 ft | 461 kts | 285° |
| 2026-04-21 14:33 | 30.53202 | -56.89219 | 32080 ft | 461 kts | 285° |
| 2026-04-21 14:34 | 30.55133 | -56.96315 | 32080 ft | 461 kts | 285° |
| 2026-04-21 14:34 | 30.57059 | -57.03410 | 32077 ft | 461 kts | 285° |
| 2026-04-21 14:35 | 30.58981 | -57.10506 | 32077 ft | 461 kts | 285° |
| 2026-04-21 14:35 | 30.60901 | -57.17612 | 32074 ft | 461 kts | 285° |
| 2026-04-21 14:36 | 30.62815 | -57.24715 | 32076 ft | 461 kts | 285° |
| 2026-04-21 14:36 | 30.64714 | -57.31778 | 32075 ft | 461 kts | 285° |
| 2026-04-21 14:37 | 30.66619 | -57.38879 | 32069 ft | 461 kts | 285° |
| 2026-04-21 14:37 | 30.68520 | -57.45984 | 32070 ft | 460 kts | 285° |
| 2026-04-21 14:38 | 30.70414 | -57.53079 | 32066 ft | 460 kts | 285° |
| 2026-04-21 14:38 | 30.72304 | -57.60176 | 32064 ft | 459 kts | 284° |
| 2026-04-21 14:39 | 30.74188 | -57.67267 | 32064 ft | 459 kts | 284° |
| 2026-04-21 14:39 | 30.76065 | -57.74352 | 32062 ft | 458 kts | 284° |
| 2026-04-21 14:40 | 30.77939 | -57.81442 | 32062 ft | 458 kts | 284° |
| 2026-04-21 14:40 | 30.79809 | -57.88533 | 32057 ft | 458 kts | 284° |
| 2026-04-21 14:41 | 30.81672 | -57.95614 | 32059 ft | 458 kts | 284° |
| 2026-04-21 14:41 | 30.83520 | -58.02656 | 32058 ft | 458 kts | 284° |
| 2026-04-21 14:42 | 30.85376 | -58.09749 | 32056 ft | 458 kts | 284° |
| 2026-04-21 14:42 | 30.87231 | -58.16851 | 32057 ft | 458 kts | 284° |
| 2026-04-21 14:43 | 30.89067 | -58.23903 | 32056 ft | 458 kts | 284° |
| 2026-04-21 14:43 | 30.90913 | -58.31005 | 32051 ft | 458 kts | 284° |
| 2026-04-21 14:44 | 30.92754 | -58.38108 | 32048 ft | 458 kts | 284° |
| 2026-04-21 14:44 | 30.94592 | -58.45218 | 32049 ft | 458 kts | 284° |
| 2026-04-21 14:45 | 30.96428 | -58.52335 | 32049 ft | 459 kts | 284° |
| 2026-04-21 14:45 | 30.98260 | -58.59458 | 32046 ft | 459 kts | 284° |
| 2026-04-21 14:46 | 31.00090 | -58.66591 | 32049 ft | 459 kts | 284° |
| 2026-04-21 14:46 | 31.01915 | -58.73722 | 32045 ft | 459 kts | 283° |
| 2026-04-21 14:47 | 31.03738 | -58.80860 | 32043 ft | 459 kts | 283° |
| 2026-04-21 14:47 | 31.05544 | -58.87953 | 32048 ft | 459 kts | 283° |
| 2026-04-21 14:48 | 31.07360 | -58.95103 | 32042 ft | 459 kts | 283° |
| 2026-04-21 14:48 | 31.09172 | -59.02253 | 32029 ft | 459 kts | 283° |
| 2026-04-21 14:49 | 31.10976 | -59.09391 | 32029 ft | 459 kts | 283° |
| 2026-04-21 14:49 | 31.12763 | -59.16483 | 32030 ft | 458 kts | 283° |
| 2026-04-21 14:50 | 31.14267 | -59.22465 | 32041 ft | 458 kts | 283° |
| 2026-04-21 14:50 | 31.16350 | -59.30769 | 32044 ft | 458 kts | 283° |
| 2026-04-21 14:51 | 31.18138 | -59.37918 | 32031 ft | 459 kts | 283° |
| 2026-04-21 14:51 | 31.19923 | -59.45071 | 32033 ft | 459 kts | 283° |
| 2026-04-21 14:52 | 31.21706 | -59.52236 | 32031 ft | 459 kts | 282° |
| 2026-04-21 14:52 | 31.23485 | -59.59407 | 32024 ft | 460 kts | 282° |
| 2026-04-21 14:53 | 31.25263 | -59.66587 | 32025 ft | 460 kts | 282° |
| 2026-04-21 14:53 | 31.27038 | -59.73780 | 32021 ft | 460 kts | 282° |
| 2026-04-21 14:54 | 31.28811 | -59.80980 | 32020 ft | 461 kts | 282° |
| 2026-04-21 14:54 | 31.30568 | -59.88132 | 32012 ft | 461 kts | 282° |
| 2026-04-21 14:55 | 31.32334 | -59.95342 | 32009 ft | 461 kts | 282° |
| 2026-04-21 14:55 | 31.34095 | -60.02551 | 32007 ft | 461 kts | 282° |
| 2026-04-21 14:56 | 31.35853 | -60.09766 | 32004 ft | 461 kts | 282° |
| 2026-04-21 14:56 | 31.37607 | -60.16986 | 31998 ft | 461 kts | 281° |
| 2026-04-21 14:57 | 31.39354 | -60.24194 | 31995 ft | 460 kts | 281° |
| 2026-04-21 14:57 | 31.41096 | -60.31399 | 31992 ft | 459 kts | 281° |
| 2026-04-21 14:58 | 31.42830 | -60.38594 | 31992 ft | 459 kts | 281° |
| 2026-04-21 14:58 | 31.44547 | -60.45734 | 31986 ft | 458 kts | 281° |
| 2026-04-21 14:59 | 31.46269 | -60.52918 | 31988 ft | 458 kts | 280° |
| 2026-04-21 14:59 | 31.47991 | -60.60119 | 31988 ft | 457 kts | 280° |
| 2026-04-21 15:00 | 31.49702 | -60.67296 | 31984 ft | 457 kts | 279° |
| 2026-04-21 15:00 | 31.51410 | -60.74476 | 31983 ft | 457 kts | 279° |
| 2026-04-21 15:01 | 31.53111 | -60.81650 | 31985 ft | 457 kts | 279° |
| 2026-04-21 15:01 | 31.54799 | -60.88788 | 31984 ft | 457 kts | 279° |
| 2026-04-21 15:02 | 31.56492 | -60.95966 | 31986 ft | 457 kts | 278° |
| 2026-04-21 15:02 | 31.58183 | -61.03153 | 31987 ft | 457 kts | 278° |
| 2026-04-21 15:03 | 31.59867 | -61.10335 | 31989 ft | 457 kts | 278° |
| 2026-04-21 15:03 | 31.61551 | -61.17535 | 31994 ft | 457 kts | 278° |
| 2026-04-21 15:04 | 31.63232 | -61.24735 | 31985 ft | 457 kts | 278° |
| 2026-04-21 15:04 | 31.64893 | -61.31898 | 31992 ft | 457 kts | 278° |
| 2026-04-21 15:05 | 31.66532 | -61.39112 | 31993 ft | 458 kts | 278° |
| 2026-04-21 15:05 | 31.68981 | -61.49957 | 31994 ft | 458 kts | 278° |
| 2026-04-21 15:06 | 31.70613 | -61.57193 | 31998 ft | 458 kts | 278° |
| 2026-04-21 15:06 | 31.72242 | -61.64429 | 32003 ft | 458 kts | 277° |
| 2026-04-21 15:07 | 31.73867 | -61.71670 | 32007 ft | 458 kts | 277° |
| 2026-04-21 15:07 | 31.75213 | -61.77685 | 32007 ft | 458 kts | 277° |
| 2026-04-21 15:08 | 31.76829 | -61.84923 | 32010 ft | 457 kts | 277° |
| 2026-04-21 15:08 | 31.78697 | -61.93316 | 32013 ft | 456 kts | 277° |
| 2026-04-21 15:09 | 31.80039 | -61.99364 | 32014 ft | 456 kts | 277° |
| 2026-04-21 15:09 | 31.81623 | -62.06523 | 32019 ft | 455 kts | 277° |
| 2026-04-21 15:10 | 31.83211 | -62.13722 | 32025 ft | 454 kts | 277° |
| 2026-04-21 15:10 | 31.84791 | -62.20904 | 32029 ft | 453 kts | 277° |
| 2026-04-21 15:11 | 31.86367 | -62.28085 | 32029 ft | 453 kts | 277° |
| 2026-04-21 15:11 | 31.87933 | -62.35257 | 32035 ft | 452 kts | 277° |
| 2026-04-21 15:12 | 31.89489 | -62.42420 | 32036 ft | 452 kts | 276° |
| 2026-04-21 15:12 | 31.91041 | -62.49583 | 32042 ft | 451 kts | 276° |
| 2026-04-21 15:13 | 31.92577 | -62.56692 | 32036 ft | 451 kts | 276° |
| 2026-04-21 15:13 | 31.94116 | -62.63837 | 32045 ft | 450 kts | 276° |
| 2026-04-21 15:14 | 31.95650 | -62.70979 | 32048 ft | 450 kts | 276° |
| 2026-04-21 15:14 | 31.97179 | -62.78115 | 32054 ft | 450 kts | 276° |
| 2026-04-21 15:15 | 31.98704 | -62.85257 | 32058 ft | 450 kts | 276° |
| 2026-04-21 15:15 | 32.00227 | -62.92408 | 32059 ft | 450 kts | 276° |
| 2026-04-21 15:16 | 32.01745 | -62.99562 | 32065 ft | 450 kts | 276° |
| 2026-04-21 15:16 | 32.03260 | -63.06714 | 32068 ft | 449 kts | 276° |
| 2026-04-21 15:17 | 32.04767 | -63.13855 | 32066 ft | 449 kts | 276° |
| 2026-04-21 15:17 | 32.06268 | -63.20987 | 32076 ft | 448 kts | 276° |
| 2026-04-21 15:18 | 32.07761 | -63.28104 | 32072 ft | 447 kts | 276° |
| 2026-04-21 15:18 | 32.09248 | -63.35213 | 32074 ft | 446 kts | 276° |
| 2026-04-21 15:19 | 32.10726 | -63.42300 | 32087 ft | 444 kts | 276° |
| 2026-04-21 15:19 | 32.12190 | -63.49341 | 32087 ft | 443 kts | 276° |
| 2026-04-21 15:20 | 32.13652 | -63.56390 | 32089 ft | 441 kts | 276° |
| 2026-04-21 15:20 | 32.15103 | -63.63411 | 32091 ft | 440 kts | 276° |
| 2026-04-21 15:21 | 32.16545 | -63.70410 | 32094 ft | 438 kts | 276° |
| 2026-04-21 15:21 | 32.17980 | -63.77396 | 32095 ft | 437 kts | 276° |
| 2026-04-21 15:22 | 32.19408 | -63.84373 | 32102 ft | 437 kts | 276° |
| 2026-04-21 15:22 | 32.20822 | -63.91298 | 32102 ft | 437 kts | 276° |
| 2026-04-21 15:23 | 32.22243 | -63.98278 | 32104 ft | 437 kts | 276° |
| 2026-04-21 15:23 | 32.23658 | -64.05249 | 32106 ft | 437 kts | 276° |
| 2026-04-21 15:24 | 32.25071 | -64.12234 | 32102 ft | 437 kts | 276° |
| 2026-04-21 15:24 | 32.26480 | -64.19218 | 32108 ft | 437 kts | 276° |
| 2026-04-21 15:25 | 32.27889 | -64.26221 | 32104 ft | 438 kts | 277° |
| 2026-04-21 15:25 | 32.29294 | -64.33227 | 32105 ft | 438 kts | 277° |
| 2026-04-21 15:26 | 32.30695 | -64.40236 | 32104 ft | 438 kts | 277° |
| 2026-04-21 15:26 | 32.32085 | -64.47211 | 32106 ft | 439 kts | 277° |
| 2026-04-21 15:27 | 32.33483 | -64.54244 | 32096 ft | 439 kts | 277° |
| 2026-04-21 15:27 | 32.34876 | -64.61277 | 32100 ft | 439 kts | 277° |
| 2026-04-21 15:28 | 32.36139 | -64.68337 | 32114 ft | 436 kts | 272° |
| 2026-04-21 15:28 | 32.36524 | -64.75438 | 32113 ft | 431 kts | 266° |
| 2026-04-21 15:29 | 32.36578 | -64.82547 | 32104 ft | 432 kts | 266° |
| 2026-04-21 15:29 | 32.36644 | -64.89625 | 32114 ft | 433 kts | 266° |
| 2026-04-21 15:30 | 32.36717 | -64.96759 | 32124 ft | 434 kts | 266° |
| 2026-04-21 15:30 | 32.36790 | -65.03906 | 32130 ft | 435 kts | 266° |
| 2026-04-21 15:31 | 32.36860 | -65.11062 | 32143 ft | 435 kts | 266° |
| 2026-04-21 15:31 | 32.36925 | -65.18221 | 32140 ft | 435 kts | 266° |
| 2026-04-21 15:32 | 32.36987 | -65.25384 | 32144 ft | 435 kts | 266° |
| 2026-04-21 15:32 | 32.37044 | -65.32551 | 32151 ft | 435 kts | 266° |
| 2026-04-21 15:33 | 32.37097 | -65.39714 | 32151 ft | 435 kts | 266° |
| 2026-04-21 15:33 | 32.37146 | -65.46836 | 32154 ft | 435 kts | 266° |
| 2026-04-21 15:34 | 32.37191 | -65.54003 | 32155 ft | 435 kts | 266° |
| 2026-04-21 15:34 | 32.37232 | -65.61161 | 32161 ft | 435 kts | 266° |
| 2026-04-21 15:35 | 32.37269 | -65.68312 | 32162 ft | 435 kts | 266° |
| 2026-04-21 15:35 | 32.37301 | -65.75456 | 32169 ft | 434 kts | 266° |
| 2026-04-21 15:36 | 32.37330 | -65.82606 | 32171 ft | 434 kts | 267° |
| 2026-04-21 15:36 | 32.37355 | -65.89751 | 32176 ft | 434 kts | 267° |
| 2026-04-21 15:37 | 32.37376 | -65.96849 | 32168 ft | 434 kts | 267° |
| 2026-04-21 15:37 | 32.37393 | -66.03990 | 32180 ft | 434 kts | 267° |
| 2026-04-21 15:38 | 32.37404 | -66.11134 | 32178 ft | 434 kts | 267° |
| 2026-04-21 15:38 | 32.37406 | -66.18271 | 32180 ft | 434 kts | 267° |
| 2026-04-21 15:39 | 32.37402 | -66.25413 | 32401 ft | 435 kts | 267° |
| 2026-04-21 15:39 | 32.37400 | -66.28991 | 32808 ft | 433 kts | 267° |
| 2026-04-21 15:39 | 32.37397 | -66.32538 | 33253 ft | 430 kts | 267° |
| 2026-04-21 15:40 | 32.37394 | -66.36063 | 33644 ft | 428 kts | 267° |
| 2026-04-21 15:40 | 32.37389 | -66.39575 | 33990 ft | 427 kts | 267° |
| 2026-04-21 15:40 | 32.37382 | -66.43089 | 34115 ft | 428 kts | 267° |
| 2026-04-21 15:40 | 32.37374 | -66.46614 | 34166 ft | 429 kts | 267° |
| 2026-04-21 15:41 | 32.37357 | -66.53617 | 34182 ft | 427 kts | 267° |
| 2026-04-21 15:41 | 32.37337 | -66.60613 | 34190 ft | 424 kts | 267° |
| 2026-04-21 15:42 | 32.37312 | -66.67578 | 34195 ft | 422 kts | 267° |
| 2026-04-21 15:42 | 32.37283 | -66.74523 | 34197 ft | 422 kts | 267° |
| 2026-04-21 15:43 | 32.37251 | -66.81469 | 34200 ft | 422 kts | 267° |
| 2026-04-21 15:43 | 32.37214 | -66.88419 | 34202 ft | 423 kts | 267° |
| 2026-04-21 15:44 | 32.37174 | -66.95383 | 34205 ft | 424 kts | 267° |
| 2026-04-21 15:44 | 32.37131 | -67.02362 | 34207 ft | 425 kts | 267° |
| 2026-04-21 15:45 | 32.37083 | -67.09314 | 34210 ft | 426 kts | 267° |
| 2026-04-21 15:45 | 32.37032 | -67.16329 | 34212 ft | 426 kts | 267° |
| 2026-04-21 15:46 | 32.36977 | -67.23345 | 34217 ft | 427 kts | 268° |
| 2026-04-21 15:46 | 32.36919 | -67.30372 | 34210 ft | 427 kts | 268° |
| 2026-04-21 15:47 | 32.36858 | -67.37396 | 34218 ft | 427 kts | 268° |
| 2026-04-21 15:47 | 32.36793 | -67.44431 | 34221 ft | 428 kts | 268° |
| 2026-04-21 15:48 | 32.36724 | -67.51472 | 34223 ft | 428 kts | 268° |
| 2026-04-21 15:48 | 32.36651 | -67.58506 | 34226 ft | 428 kts | 268° |
| 2026-04-21 15:49 | 32.36575 | -67.65497 | 34228 ft | 428 kts | 268° |
| 2026-04-21 15:49 | 32.36494 | -67.72545 | 34223 ft | 428 kts | 268° |
| 2026-04-21 15:50 | 32.36410 | -67.79586 | 34228 ft | 428 kts | 268° |
| 2026-04-21 15:50 | 32.36322 | -67.86620 | 34224 ft | 428 kts | 268° |
| 2026-04-21 15:51 | 32.36229 | -67.93668 | 34228 ft | 428 kts | 268° |
| 2026-04-21 15:51 | 32.36133 | -68.00715 | 34233 ft | 428 kts | 268° |
| 2026-04-21 15:52 | 32.36033 | -68.07710 | 34241 ft | 428 kts | 268° |
| 2026-04-21 15:52 | 32.35930 | -68.14764 | 34232 ft | 429 kts | 268° |
| 2026-04-21 15:53 | 32.35822 | -68.21817 | 34234 ft | 429 kts | 268° |
| 2026-04-21 15:53 | 32.35422 | -68.28859 | 34240 ft | 429 kts | 265° |
| 2026-04-21 15:54 | 32.34878 | -68.35884 | 34240 ft | 429 kts | 265° |
| 2026-04-21 15:54 | 32.34334 | -68.42871 | 34238 ft | 429 kts | 265° |
| 2026-04-21 15:55 | 32.33793 | -68.49917 | 34242 ft | 430 kts | 265° |
| 2026-04-21 15:55 | 32.33253 | -68.56969 | 34246 ft | 430 kts | 265° |
| 2026-04-21 15:56 | 32.32710 | -68.64023 | 34254 ft | 431 kts | 265° |
| 2026-04-21 15:56 | 32.32164 | -68.71079 | 34254 ft | 431 kts | 265° |
| 2026-04-21 15:57 | 32.31706 | -68.76942 | 34242 ft | 431 kts | 265° |
| 2026-04-21 15:57 | 32.31151 | -68.84017 | 34244 ft | 432 kts | 265° |
| 2026-04-21 15:58 | 32.30591 | -68.91090 | 34257 ft | 432 kts | 265° |
| 2026-04-21 15:58 | 32.30027 | -68.98168 | 34254 ft | 433 kts | 265° |
| 2026-04-21 15:59 | 32.29458 | -69.05251 | 34257 ft | 433 kts | 265° |
| 2026-04-21 15:59 | 32.28885 | -69.12344 | 34260 ft | 433 kts | 265° |
| 2026-04-21 16:00 | 32.28311 | -69.19397 | 34263 ft | 434 kts | 265° |
| 2026-04-21 16:00 | 32.27728 | -69.26501 | 34258 ft | 435 kts | 266° |
| 2026-04-21 16:01 | 32.27141 | -69.33612 | 34264 ft | 435 kts | 266° |
| 2026-04-21 16:01 | 32.26551 | -69.40733 | 34258 ft | 435 kts | 266° |
| 2026-04-21 16:02 | 32.25955 | -69.47855 | 34269 ft | 436 kts | 266° |
| 2026-04-21 16:02 | 32.25353 | -69.54986 | 34259 ft | 436 kts | 266° |
| 2026-04-21 16:03 | 32.24748 | -69.62117 | 34262 ft | 436 kts | 266° |
| 2026-04-21 16:03 | 32.24142 | -69.69210 | 34259 ft | 437 kts | 266° |
| 2026-04-21 16:04 | 32.23528 | -69.76352 | 34268 ft | 437 kts | 266° |
| 2026-04-21 16:04 | 32.22910 | -69.83493 | 34264 ft | 437 kts | 266° |
| 2026-04-21 16:05 | 32.22288 | -69.90634 | 34273 ft | 437 kts | 266° |
| 2026-04-21 16:05 | 32.21661 | -69.97785 | 34262 ft | 437 kts | 266° |
| 2026-04-21 16:06 | 32.21030 | -70.04927 | 34275 ft | 437 kts | 266° |
| 2026-04-21 16:06 | 32.20396 | -70.12068 | 34272 ft | 437 kts | 266° |
| 2026-04-21 16:07 | 32.19758 | -70.19204 | 34272 ft | 437 kts | 266° |
| 2026-04-21 16:07 | 32.19115 | -70.26346 | 34279 ft | 437 kts | 266° |
| 2026-04-21 16:08 | 32.18148 | -70.37007 | 34270 ft | 437 kts | 266° |
| 2026-04-21 16:09 | 32.17495 | -70.44150 | 34282 ft | 437 kts | 266° |
| 2026-04-21 16:09 | 32.16838 | -70.51294 | 34279 ft | 438 kts | 266° |
| 2026-04-21 16:10 | 32.16175 | -70.58454 | 34281 ft | 438 kts | 266° |
| 2026-04-21 16:10 | 32.15514 | -70.65556 | 34283 ft | 438 kts | 266° |
| 2026-04-21 16:11 | 32.14844 | -70.72705 | 34284 ft | 438 kts | 266° |
| 2026-04-21 16:11 | 32.14169 | -70.79861 | 34287 ft | 438 kts | 266° |
| 2026-04-21 16:12 | 32.13490 | -70.87016 | 34287 ft | 439 kts | 266° |
| 2026-04-21 16:12 | 32.12807 | -70.94170 | 34282 ft | 439 kts | 266° |
| 2026-04-21 16:13 | 32.12119 | -71.01329 | 34286 ft | 439 kts | 266° |
| 2026-04-21 16:13 | 32.11429 | -71.08479 | 34291 ft | 439 kts | 266° |
| 2026-04-21 16:14 | 32.10737 | -71.15596 | 34286 ft | 439 kts | 266° |
| 2026-04-21 16:14 | 32.10038 | -71.22750 | 34293 ft | 439 kts | 266° |
| 2026-04-21 16:15 | 32.09336 | -71.29893 | 34292 ft | 439 kts | 266° |
| 2026-04-21 16:15 | 32.08628 | -71.37044 | 34294 ft | 438 kts | 265° |
| 2026-04-21 16:16 | 32.07918 | -71.44180 | 34297 ft | 438 kts | 265° |
| 2026-04-21 16:16 | 32.07204 | -71.51317 | 34294 ft | 438 kts | 265° |
| 2026-04-21 16:17 | 32.06487 | -71.58447 | 34306 ft | 438 kts | 265° |
| 2026-04-21 16:17 | 32.05767 | -71.65569 | 34304 ft | 438 kts | 265° |
| 2026-04-21 16:18 | 32.05043 | -71.72690 | 34302 ft | 437 kts | 265° |
| 2026-04-21 16:18 | 32.04316 | -71.79757 | 34302 ft | 437 kts | 265° |
| 2026-04-21 16:19 | 32.03530 | -71.86864 | 34299 ft | 437 kts | 265° |
| 2026-04-21 16:19 | 32.02725 | -71.93967 | 34303 ft | 437 kts | 265° |
| 2026-04-21 16:20 | 32.01921 | -72.01074 | 34309 ft | 437 kts | 265° |
| 2026-04-21 16:20 | 32.01117 | -72.08184 | 34306 ft | 437 kts | 265° |
| 2026-04-21 16:21 | 32.00312 | -72.15284 | 34304 ft | 437 kts | 265° |
| 2026-04-21 16:21 | 31.99508 | -72.22336 | 34308 ft | 437 kts | 265° |
| 2026-04-21 16:22 | 31.98689 | -72.29477 | 34306 ft | 437 kts | 265° |
| 2026-04-21 16:22 | 31.97878 | -72.36517 | 34303 ft | 437 kts | 265° |
| 2026-04-21 16:23 | 31.97059 | -72.43595 | 34306 ft | 436 kts | 265° |
| 2026-04-21 16:23 | 31.96236 | -72.50669 | 34304 ft | 436 kts | 264° |
| 2026-04-21 16:24 | 31.95410 | -72.57730 | 34313 ft | 435 kts | 264° |
| 2026-04-21 16:24 | 31.94581 | -72.64785 | 34308 ft | 435 kts | 264° |
| 2026-04-21 16:25 | 31.93749 | -72.71834 | 34308 ft | 434 kts | 264° |
| 2026-04-21 16:25 | 31.92914 | -72.78872 | 34312 ft | 434 kts | 264° |
| 2026-04-21 16:26 | 31.92076 | -72.85900 | 34311 ft | 433 kts | 264° |
| 2026-04-21 16:26 | 31.91240 | -72.92883 | 34315 ft | 433 kts | 264° |
| 2026-04-21 16:27 | 31.90395 | -72.99900 | 34316 ft | 433 kts | 264° |
| 2026-04-21 16:27 | 31.89548 | -73.06907 | 34314 ft | 432 kts | 264° |
| 2026-04-21 16:28 | 31.88697 | -73.13910 | 34320 ft | 432 kts | 264° |
| 2026-04-21 16:28 | 31.87842 | -73.20919 | 34321 ft | 431 kts | 264° |
| 2026-04-21 16:29 | 31.86986 | -73.27899 | 34319 ft | 431 kts | 264° |
| 2026-04-21 16:29 | 31.86132 | -73.34832 | 34320 ft | 430 kts | 264° |
| 2026-04-21 16:30 | 31.85269 | -73.41799 | 34322 ft | 430 kts | 264° |
| 2026-04-21 16:30 | 31.84404 | -73.48756 | 34324 ft | 429 kts | 264° |
| 2026-04-21 16:31 | 31.83538 | -73.55697 | 34323 ft | 429 kts | 264° |
| 2026-04-21 16:31 | 31.82668 | -73.62626 | 34322 ft | 428 kts | 264° |
| 2026-04-21 16:32 | 31.81797 | -73.69545 | 34323 ft | 427 kts | 264° |
| 2026-04-21 16:32 | 31.80927 | -73.76418 | 34322 ft | 427 kts | 264° |
| 2026-04-21 16:33 | 31.80050 | -73.83319 | 34322 ft | 426 kts | 264° |
| 2026-04-21 16:33 | 31.79169 | -73.90215 | 34329 ft | 426 kts | 264° |
| 2026-04-21 16:34 | 31.78286 | -73.97087 | 34325 ft | 425 kts | 264° |
| 2026-04-21 16:34 | 31.77400 | -74.03961 | 34323 ft | 425 kts | 264° |
| 2026-04-21 16:35 | 31.76512 | -74.10829 | 34338 ft | 425 kts | 264° |
| 2026-04-21 16:35 | 31.75626 | -74.17647 | 34328 ft | 424 kts | 264° |
| 2026-04-21 16:36 | 31.74733 | -74.24494 | 34339 ft | 424 kts | 264° |
| 2026-04-21 16:36 | 31.73837 | -74.31334 | 34336 ft | 423 kts | 264° |
| 2026-04-21 16:37 | 31.72936 | -74.38176 | 34330 ft | 423 kts | 264° |
| 2026-04-21 16:37 | 31.72035 | -74.44995 | 34332 ft | 422 kts | 264° |
| 2026-04-21 16:38 | 31.71130 | -74.51816 | 34331 ft | 422 kts | 264° |
| 2026-04-21 16:38 | 31.70230 | -74.58570 | 34331 ft | 421 kts | 264° |
| 2026-04-21 16:39 | 31.69320 | -74.65366 | 34333 ft | 421 kts | 264° |
| 2026-04-21 16:39 | 31.68409 | -74.72153 | 34332 ft | 420 kts | 264° |
| 2026-04-21 16:40 | 31.67495 | -74.78925 | 34335 ft | 420 kts | 264° |
| 2026-04-21 16:40 | 31.66579 | -74.85688 | 34333 ft | 419 kts | 264° |
| 2026-04-21 16:41 | 31.65815 | -74.91304 | 34329 ft | 419 kts | 264° |
| 2026-04-21 16:41 | 31.64737 | -74.99200 | 34330 ft | 418 kts | 264° |
| 2026-04-21 16:42 | 31.63812 | -75.05943 | 34336 ft | 418 kts | 264° |
| 2026-04-21 16:42 | 31.62886 | -75.12671 | 34333 ft | 418 kts | 264° |
| 2026-04-21 16:43 | 31.61962 | -75.19348 | 34338 ft | 417 kts | 264° |
| 2026-04-21 16:43 | 31.61030 | -75.26067 | 34336 ft | 417 kts | 264° |
| 2026-04-21 16:44 | 31.60094 | -75.32786 | 34334 ft | 417 kts | 264° |
| 2026-04-21 16:44 | 31.59154 | -75.39506 | 34340 ft | 417 kts | 264° |
| 2026-04-21 16:45 | 31.58211 | -75.46218 | 34339 ft | 417 kts | 264° |
| 2026-04-21 16:45 | 31.57265 | -75.52929 | 34338 ft | 416 kts | 264° |
| 2026-04-21 16:46 | 31.56322 | -75.59585 | 34338 ft | 416 kts | 264° |
| 2026-04-21 16:46 | 31.55371 | -75.66283 | 34341 ft | 416 kts | 264° |
| 2026-04-21 16:47 | 31.54417 | -75.72970 | 34338 ft | 415 kts | 264° |
| 2026-04-21 16:47 | 31.53622 | -75.78525 | 34340 ft | 415 kts | 264° |
| 2026-04-21 16:48 | 31.52663 | -75.85198 | 34338 ft | 415 kts | 264° |
| 2026-04-21 16:48 | 31.51547 | -75.92937 | 34340 ft | 414 kts | 263° |
| 2026-04-21 16:49 | 31.50739 | -75.98517 | 34342 ft | 414 kts | 263° |
| 2026-04-21 16:49 | 31.49779 | -76.05123 | 34343 ft | 413 kts | 263° |
| 2026-04-21 16:50 | 31.48810 | -76.11764 | 34342 ft | 413 kts | 263° |
| 2026-04-21 16:50 | 31.47840 | -76.18393 | 34343 ft | 413 kts | 263° |
| 2026-04-21 16:51 | 31.46867 | -76.25016 | 34341 ft | 412 kts | 263° |
| 2026-04-21 16:51 | 31.45892 | -76.31629 | 34340 ft | 411 kts | 263° |
| 2026-04-21 16:52 | 31.44921 | -76.38186 | 34339 ft | 411 kts | 263° |
| 2026-04-21 16:52 | 31.43941 | -76.44785 | 34341 ft | 410 kts | 263° |
| 2026-04-21 16:53 | 31.42959 | -76.51373 | 34345 ft | 410 kts | 263° |
| 2026-04-21 16:53 | 31.41975 | -76.57947 | 34347 ft | 410 kts | 263° |
| 2026-04-21 16:54 | 31.40988 | -76.64521 | 34344 ft | 410 kts | 263° |
| 2026-04-21 16:54 | 31.39998 | -76.71089 | 34343 ft | 410 kts | 263° |
| 2026-04-21 16:55 | 31.39012 | -76.77609 | 34348 ft | 409 kts | 263° |
| 2026-04-21 16:55 | 31.38016 | -76.84175 | 34343 ft | 409 kts | 263° |
| 2026-04-21 16:56 | 31.37018 | -76.90728 | 34344 ft | 409 kts | 263° |
| 2026-04-21 16:56 | 31.37102 | -76.97212 | 34355 ft | 401 kts | 285° |
| 2026-04-21 16:57 | 31.39276 | -77.03251 | 34346 ft | 406 kts | 296° |
| 2026-04-21 16:57 | 31.40989 | -77.05901 | 34336 ft | 414 kts | 310° |
| 2026-04-21 16:57 | 31.43159 | -77.08145 | 34343 ft | 418 kts | 313° |
| 2026-04-21 16:58 | 31.47586 | -77.12575 | 34349 ft | 418 kts | 312° |
| 2026-04-21 16:58 | 31.51943 | -77.17095 | 34354 ft | 418 kts | 311° |
| 2026-04-21 16:59 | 31.55889 | -77.21890 | 34345 ft | 403 kts | 296° |
| 2026-04-21 16:59 | 31.56967 | -77.24887 | 34360 ft | 398 kts | 284° |
| 2026-04-21 16:59 | 31.57452 | -77.28075 | 34349 ft | 398 kts | 275° |
| 2026-04-21 17:00 | 31.57029 | -77.34551 | 34347 ft | 403 kts | 260° |
| 2026-04-21 17:00 | 31.55346 | -77.39735 | 34336 ft | 415 kts | 245° |
| 2026-04-21 17:00 | 31.52718 | -77.43111 | 34360 ft | 429 kts | 231° |
| 2026-04-21 17:01 | 31.50474 | -77.45427 | 34347 ft | 431 kts | 230° |
| 2026-04-21 17:01 | 31.45966 | -77.50052 | 34343 ft | 430 kts | 231° |
| 2026-04-21 17:02 | 31.41523 | -77.54744 | 34341 ft | 429 kts | 232° |
| 2026-04-21 17:02 | 31.37113 | -77.59465 | 34340 ft | 429 kts | 232° |
| 2026-04-21 17:03 | 31.32702 | -77.64189 | 34345 ft | 430 kts | 232° |
| 2026-04-21 17:03 | 31.28288 | -77.68920 | 34341 ft | 428 kts | 233° |
| 2026-04-21 17:04 | 31.24424 | -77.74049 | 34343 ft | 418 kts | 242° |
| 2026-04-21 17:04 | 31.21000 | -77.79547 | 34340 ft | 419 kts | 242° |
| 2026-04-21 17:05 | 31.17537 | -77.85041 | 34345 ft | 421 kts | 242° |
| 2026-04-21 17:05 | 31.14053 | -77.90544 | 34344 ft | 422 kts | 242° |
| 2026-04-21 17:06 | 31.10552 | -77.96066 | 34338 ft | 423 kts | 242° |
| 2026-04-21 17:06 | 31.07042 | -78.01597 | 34342 ft | 424 kts | 242° |
| 2026-04-21 17:07 | 31.03556 | -78.07105 | 34350 ft | 425 kts | 242° |
| 2026-04-21 17:07 | 31.00042 | -78.12652 | 34329 ft | 426 kts | 242° |
| 2026-04-21 17:08 | 30.96519 | -78.18205 | 34336 ft | 426 kts | 241° |
| 2026-04-21 17:08 | 30.92988 | -78.23757 | 34343 ft | 427 kts | 241° |
| 2026-04-21 17:09 | 30.87641 | -78.32062 | 34341 ft | 427 kts | 241° |
| 2026-04-21 17:09 | 30.84064 | -78.37609 | 34327 ft | 428 kts | 241° |
| 2026-04-21 17:10 | 30.80488 | -78.43151 | 34333 ft | 428 kts | 241° |
| 2026-04-21 17:10 | 30.76933 | -78.48669 | 34339 ft | 429 kts | 241° |
| 2026-04-21 17:11 | 30.73356 | -78.54227 | 34337 ft | 430 kts | 241° |
| 2026-04-21 17:11 | 30.69770 | -78.59791 | 34338 ft | 430 kts | 240° |
| 2026-04-21 17:12 | 30.66173 | -78.65364 | 34341 ft | 431 kts | 240° |
| 2026-04-21 17:12 | 30.62553 | -78.70934 | 34337 ft | 433 kts | 239° |
| 2026-04-21 17:13 | 30.58725 | -78.76368 | 34341 ft | 436 kts | 238° |
| 2026-04-21 17:13 | 30.54849 | -78.81778 | 34355 ft | 436 kts | 238° |
| 2026-04-21 17:14 | 30.50992 | -78.87220 | 34351 ft | 437 kts | 238° |
| 2026-04-21 17:14 | 30.47160 | -78.92640 | 34339 ft | 437 kts | 238° |
| 2026-04-21 17:15 | 30.43869 | -78.98414 | 34347 ft | 421 kts | 254° |
| 2026-04-21 17:15 | 30.42401 | -79.04912 | 34349 ft | 417 kts | 267° |
| 2026-04-21 17:16 | 30.42431 | -79.11617 | 34343 ft | 418 kts | 274° |
| 2026-04-21 17:16 | 30.42621 | -79.18381 | 34342 ft | 421 kts | 274° |
| 2026-04-21 17:17 | 30.42781 | -79.25182 | 34341 ft | 422 kts | 273° |
| 2026-04-21 17:17 | 30.42912 | -79.31962 | 34342 ft | 420 kts | 273° |
| 2026-04-21 17:18 | 30.43031 | -79.38709 | 34341 ft | 418 kts | 273° |
| 2026-04-21 17:18 | 30.43143 | -79.45384 | 34338 ft | 416 kts | 273° |
| 2026-04-21 17:19 | 30.43253 | -79.52070 | 34335 ft | 414 kts | 273° |
| 2026-04-21 17:19 | 30.43360 | -79.58745 | 34342 ft | 414 kts | 273° |
| 2026-04-21 17:20 | 30.43463 | -79.65409 | 34346 ft | 413 kts | 273° |
| 2026-04-21 17:20 | 30.43563 | -79.72069 | 34339 ft | 414 kts | 273° |
| 2026-04-21 17:21 | 30.43660 | -79.78747 | 34340 ft | 415 kts | 273° |
| 2026-04-21 17:21 | 30.43753 | -79.85441 | 34338 ft | 416 kts | 273° |
| 2026-04-21 17:22 | 30.43843 | -79.92113 | 34339 ft | 417 kts | 273° |
| 2026-04-21 17:22 | 30.43930 | -79.98836 | 34337 ft | 417 kts | 273° |
| 2026-04-21 17:23 | 30.44014 | -80.05572 | 34338 ft | 418 kts | 273° |
| 2026-04-21 17:23 | 30.44094 | -80.12314 | 34340 ft | 419 kts | 273° |
| 2026-04-21 17:24 | 30.44171 | -80.19064 | 34340 ft | 419 kts | 273° |
| 2026-04-21 17:24 | 30.44244 | -80.25827 | 34337 ft | 419 kts | 273° |
| 2026-04-21 17:25 | 30.44314 | -80.32553 | 34343 ft | 420 kts | 273° |
| 2026-04-21 17:25 | 30.44380 | -80.39317 | 34341 ft | 420 kts | 273° |
| 2026-04-21 17:26 | 30.44444 | -80.46092 | 34343 ft | 420 kts | 273° |
| 2026-04-21 17:26 | 30.44503 | -80.52862 | 34338 ft | 420 kts | 273° |
| 2026-04-21 17:27 | 30.44560 | -80.59648 | 34341 ft | 420 kts | 273° |
| 2026-04-21 17:27 | 30.44612 | -80.66429 | 34338 ft | 421 kts | 273° |
| 2026-04-21 17:28 | 30.44662 | -80.73163 | 34343 ft | 421 kts | 273° |
| 2026-04-21 17:28 | 30.44712 | -80.79955 | 34340 ft | 421 kts | 273° |
| 2026-04-21 17:29 | 30.44848 | -80.86750 | 34344 ft | 421 kts | 274° |
| 2026-04-21 17:29 | 30.45009 | -80.93543 | 34343 ft | 422 kts | 274° |
| 2026-04-21 17:30 | 30.45158 | -81.00341 | 34344 ft | 422 kts | 274° |
| 2026-04-21 17:30 | 30.45297 | -81.07141 | 34343 ft | 422 kts | 274° |
| 2026-04-21 17:31 | 30.45430 | -81.13899 | 34347 ft | 422 kts | 274° |
| 2026-04-21 17:31 | 30.45560 | -81.20708 | 34342 ft | 422 kts | 274° |
| 2026-04-21 17:32 | 30.45688 | -81.27514 | 34345 ft | 422 kts | 274° |
| 2026-04-21 17:32 | 30.45812 | -81.34324 | 34346 ft | 422 kts | 274° |
| 2026-04-21 17:33 | 30.45932 | -81.41137 | 34353 ft | 422 kts | 274° |
| 2026-04-21 17:33 | 30.46039 | -81.47937 | 34346 ft | 422 kts | 274° |
| 2026-04-21 17:34 | 30.46142 | -81.54742 | 34325 ft | 422 kts | 274° |
| 2026-04-21 17:34 | 30.46242 | -81.61502 | 34320 ft | 422 kts | 274° |